<?xml version="1.0" encoding="UTF-8" standalone="no" ?>
<gpx xmlns="http://www.topografix.com/GPX/1/1" xmlns:xsi="http://www.w3.org/2001/XMLSchema-instance" xsi:schemaLocation="http://www.topografix.com/GPX/1/1 http://www.topografix.com/GPX/1/1/gpx.xsd" version="1.1" creator="VisuGPX - https://www.visugpx.com">
  <metadata>
    <name>GraphHopper Track</name>
  </metadata>
  <trk>
    <name><![CDATA[GraphHopper Track]]></name>
    <trkseg>
      <trkpt lat="45.83667" lon="3.10946">
        <ele>351</ele>
        <time>2019-06-11T13:23:08Z</time>
      </trkpt>
      <trkpt lat="45.83667" lon="3.11003">
        <ele>351</ele>
        <time>2019-06-11T13:23:34Z</time>
      </trkpt>
      <trkpt lat="45.83698" lon="3.10995">
        <ele>352</ele>
        <time>2019-06-11T13:23:41Z</time>
      </trkpt>
      <trkpt lat="45.83701" lon="3.10495">
        <ele>354.4</ele>
        <time>2019-06-11T13:25:08Z</time>
      </trkpt>
      <trkpt lat="45.83659" lon="3.10505">
        <ele>353.7</ele>
        <time>2019-06-11T13:25:19Z</time>
      </trkpt>
      <trkpt lat="45.83673" lon="3.10329">
        <ele>355</ele>
        <time>2019-06-11T13:25:50Z</time>
      </trkpt>
      <trkpt lat="45.83677" lon="3.10291">
        <ele>355.2</ele>
        <time>2019-06-11T13:25:56Z</time>
      </trkpt>
      <trkpt lat="45.83681" lon="3.10286">
        <ele>355.4</ele>
        <time>2019-06-11T13:25:58Z</time>
      </trkpt>
      <trkpt lat="45.83671" lon="3.10271">
        <ele>355.4</ele>
        <time>2019-06-11T13:26:01Z</time>
      </trkpt>
      <trkpt lat="45.83621" lon="3.10224">
        <ele>355.4</ele>
        <time>2019-06-11T13:26:16Z</time>
      </trkpt>
      <trkpt lat="45.83566" lon="3.10176">
        <ele>355.7</ele>
        <time>2019-06-11T13:26:33Z</time>
      </trkpt>
      <trkpt lat="45.83559" lon="3.10174">
        <ele>355.4</ele>
        <time>2019-06-11T13:26:34Z</time>
      </trkpt>
      <trkpt lat="45.83556" lon="3.10156">
        <ele>355.7</ele>
        <time>2019-06-11T13:26:38Z</time>
      </trkpt>
      <trkpt lat="45.83552" lon="3.10051">
        <ele>361</ele>
        <time>2019-06-11T13:26:56Z</time>
      </trkpt>
      <trkpt lat="45.83552" lon="3.09951">
        <ele>363.7</ele>
        <time>2019-06-11T13:27:13Z</time>
      </trkpt>
      <trkpt lat="45.83546" lon="3.09898">
        <ele>364.9</ele>
        <time>2019-06-11T13:27:23Z</time>
      </trkpt>
      <trkpt lat="45.83545" lon="3.0987">
        <ele>365.2</ele>
        <time>2019-06-11T13:27:28Z</time>
      </trkpt>
      <trkpt lat="45.83551" lon="3.09779">
        <ele>365.7</ele>
        <time>2019-06-11T13:27:44Z</time>
      </trkpt>
      <trkpt lat="45.83547" lon="3.09739">
        <ele>365</ele>
        <time>2019-06-11T13:27:51Z</time>
      </trkpt>
      <trkpt lat="45.83554" lon="3.09656">
        <ele>361.6</ele>
        <time>2019-06-11T13:28:05Z</time>
      </trkpt>
      <trkpt lat="45.83555" lon="3.09583">
        <ele>360</ele>
        <time>2019-06-11T13:28:18Z</time>
      </trkpt>
      <trkpt lat="45.83553" lon="3.09573">
        <ele>359.9</ele>
        <time>2019-06-11T13:28:20Z</time>
      </trkpt>
      <trkpt lat="45.83547" lon="3.09565">
        <ele>359.9</ele>
        <time>2019-06-11T13:28:22Z</time>
      </trkpt>
      <trkpt lat="45.83553" lon="3.09556">
        <ele>360</ele>
        <time>2019-06-11T13:28:24Z</time>
      </trkpt>
      <trkpt lat="45.83555" lon="3.09545">
        <ele>360</ele>
        <time>2019-06-11T13:28:25Z</time>
      </trkpt>
      <trkpt lat="45.83564" lon="3.09532">
        <ele>360.3</ele>
        <time>2019-06-11T13:28:28Z</time>
      </trkpt>
      <trkpt lat="45.83592" lon="3.09501">
        <ele>361</ele>
        <time>2019-06-11T13:28:36Z</time>
      </trkpt>
      <trkpt lat="45.83589" lon="3.09488">
        <ele>361.1</ele>
        <time>2019-06-11T13:28:39Z</time>
      </trkpt>
      <trkpt lat="45.83581" lon="3.09484">
        <ele>360.9</ele>
        <time>2019-06-11T13:28:40Z</time>
      </trkpt>
      <trkpt lat="45.83563" lon="3.0948">
        <ele>360.3</ele>
        <time>2019-06-11T13:28:44Z</time>
      </trkpt>
      <trkpt lat="45.83558" lon="3.09476">
        <ele>360.1</ele>
        <time>2019-06-11T13:28:46Z</time>
      </trkpt>
      <trkpt lat="45.83555" lon="3.0947">
        <ele>360</ele>
        <time>2019-06-11T13:28:47Z</time>
      </trkpt>
      <trkpt lat="45.83556" lon="3.09152">
        <ele>365</ele>
        <time>2019-06-11T13:29:36Z</time>
      </trkpt>
      <trkpt lat="45.83548" lon="3.09088">
        <ele>366.1</ele>
        <time>2019-06-11T13:29:46Z</time>
      </trkpt>
      <trkpt lat="45.83534" lon="3.09017">
        <ele>366.9</ele>
        <time>2019-06-11T13:29:58Z</time>
      </trkpt>
      <trkpt lat="45.83515" lon="3.08952">
        <ele>367.4</ele>
        <time>2019-06-11T13:30:09Z</time>
      </trkpt>
      <trkpt lat="45.83493" lon="3.08895">
        <ele>368.2</ele>
        <time>2019-06-11T13:30:19Z</time>
      </trkpt>
      <trkpt lat="45.83468" lon="3.08846">
        <ele>369</ele>
        <time>2019-06-11T13:30:28Z</time>
      </trkpt>
      <trkpt lat="45.8344" lon="3.08802">
        <ele>369</ele>
        <time>2019-06-11T13:30:37Z</time>
      </trkpt>
      <trkpt lat="45.83407" lon="3.08759">
        <ele>369.4</ele>
        <time>2019-06-11T13:30:47Z</time>
      </trkpt>
      <trkpt lat="45.83374" lon="3.08727">
        <ele>370.5</ele>
        <time>2019-06-11T13:30:56Z</time>
      </trkpt>
      <trkpt lat="45.83394" lon="3.08635">
        <ele>371.3</ele>
        <time>2019-06-11T13:31:13Z</time>
      </trkpt>
      <trkpt lat="45.83406" lon="3.08649">
        <ele>371.4</ele>
        <time>2019-06-11T13:31:17Z</time>
      </trkpt>
      <trkpt lat="45.83421" lon="3.0866">
        <ele>371.3</ele>
        <time>2019-06-11T13:31:20Z</time>
      </trkpt>
      <trkpt lat="45.83454" lon="3.08668">
        <ele>370.9</ele>
        <time>2019-06-11T13:31:28Z</time>
      </trkpt>
      <trkpt lat="45.83459" lon="3.08677">
        <ele>370.5</ele>
        <time>2019-06-11T13:31:30Z</time>
      </trkpt>
      <trkpt lat="45.8346" lon="3.08622">
        <ele>371.8</ele>
        <time>2019-06-11T13:31:38Z</time>
      </trkpt>
      <trkpt lat="45.83467" lon="3.08604">
        <ele>372</ele>
        <time>2019-06-11T13:31:42Z</time>
      </trkpt>
      <trkpt lat="45.83466" lon="3.08572">
        <ele>372.2</ele>
        <time>2019-06-11T13:31:46Z</time>
      </trkpt>
      <trkpt lat="45.83461" lon="3.0854">
        <ele>373</ele>
        <time>2019-06-11T13:31:52Z</time>
      </trkpt>
      <trkpt lat="45.83455" lon="3.08492">
        <ele>373.7</ele>
        <time>2019-06-11T13:31:59Z</time>
      </trkpt>
      <trkpt lat="45.83456" lon="3.0846">
        <ele>374.3</ele>
        <time>2019-06-11T13:32:04Z</time>
      </trkpt>
      <trkpt lat="45.83464" lon="3.0842">
        <ele>374.9</ele>
        <time>2019-06-11T13:32:11Z</time>
      </trkpt>
      <trkpt lat="45.83491" lon="3.08329">
        <ele>377.7</ele>
        <time>2019-06-11T13:32:26Z</time>
      </trkpt>
      <trkpt lat="45.83515" lon="3.08271">
        <ele>379.1</ele>
        <time>2019-06-11T13:32:36Z</time>
      </trkpt>
      <trkpt lat="45.83527" lon="3.08252">
        <ele>379.9</ele>
        <time>2019-06-11T13:32:40Z</time>
      </trkpt>
      <trkpt lat="45.83543" lon="3.08233">
        <ele>380.7</ele>
        <time>2019-06-11T13:32:45Z</time>
      </trkpt>
      <trkpt lat="45.83574" lon="3.08204">
        <ele>382.4</ele>
        <time>2019-06-11T13:32:53Z</time>
      </trkpt>
      <trkpt lat="45.83648" lon="3.08156">
        <ele>386.4</ele>
        <time>2019-06-11T13:33:11Z</time>
      </trkpt>
      <trkpt lat="45.8366" lon="3.08153">
        <ele>387.5</ele>
        <time>2019-06-11T13:33:14Z</time>
      </trkpt>
      <trkpt lat="45.83684" lon="3.08168">
        <ele>388.8</ele>
        <time>2019-06-11T13:33:20Z</time>
      </trkpt>
      <trkpt lat="45.8373" lon="3.08187">
        <ele>391.7</ele>
        <time>2019-06-11T13:33:31Z</time>
      </trkpt>
      <trkpt lat="45.83752" lon="3.082">
        <ele>394.1</ele>
        <time>2019-06-11T13:33:36Z</time>
      </trkpt>
      <trkpt lat="45.83788" lon="3.08226">
        <ele>399.8</ele>
        <time>2019-06-11T13:33:46Z</time>
      </trkpt>
      <trkpt lat="45.83813" lon="3.08229">
        <ele>406.5</ele>
        <time>2019-06-11T13:33:51Z</time>
      </trkpt>
      <trkpt lat="45.83828" lon="3.08238">
        <ele>410.1</ele>
        <time>2019-06-11T13:33:55Z</time>
      </trkpt>
      <trkpt lat="45.83835" lon="3.08246">
        <ele>411.4</ele>
        <time>2019-06-11T13:33:57Z</time>
      </trkpt>
      <trkpt lat="45.83847" lon="3.08268">
        <ele>415.5</ele>
        <time>2019-06-11T13:34:01Z</time>
      </trkpt>
      <trkpt lat="45.83856" lon="3.08274">
        <ele>417.9</ele>
        <time>2019-06-11T13:34:06Z</time>
      </trkpt>
      <trkpt lat="45.83925" lon="3.08299">
        <ele>439.6</ele>
        <time>2019-06-11T13:34:22Z</time>
      </trkpt>
      <trkpt lat="45.84027" lon="3.08356">
        <ele>461.6</ele>
        <time>2019-06-11T13:34:47Z</time>
      </trkpt>
      <trkpt lat="45.84038" lon="3.08382">
        <ele>464.2</ele>
        <time>2019-06-11T13:34:52Z</time>
      </trkpt>
      <trkpt lat="45.84049" lon="3.08392">
        <ele>466.7</ele>
        <time>2019-06-11T13:34:55Z</time>
      </trkpt>
      <trkpt lat="45.8406" lon="3.08395">
        <ele>469.3</ele>
        <time>2019-06-11T13:34:58Z</time>
      </trkpt>
      <trkpt lat="45.84067" lon="3.08402">
        <ele>471.2</ele>
        <time>2019-06-11T13:35:00Z</time>
      </trkpt>
      <trkpt lat="45.84071" lon="3.08431">
        <ele>472.8</ele>
        <time>2019-06-11T13:35:04Z</time>
      </trkpt>
      <trkpt lat="45.8408" lon="3.08432">
        <ele>475</ele>
        <time>2019-06-11T13:35:06Z</time>
      </trkpt>
      <trkpt lat="45.84091" lon="3.08417">
        <ele>477.3</ele>
        <time>2019-06-11T13:35:09Z</time>
      </trkpt>
      <trkpt lat="45.84103" lon="3.08415">
        <ele>479.5</ele>
        <time>2019-06-11T13:35:14Z</time>
      </trkpt>
      <trkpt lat="45.84107" lon="3.08402">
        <ele>480.1</ele>
        <time>2019-06-11T13:35:16Z</time>
      </trkpt>
      <trkpt lat="45.84102" lon="3.08386">
        <ele>478.7</ele>
        <time>2019-06-11T13:35:19Z</time>
      </trkpt>
      <trkpt lat="45.84101" lon="3.08368">
        <ele>478.9</ele>
        <time>2019-06-11T13:35:22Z</time>
      </trkpt>
      <trkpt lat="45.84103" lon="3.08262">
        <ele>485</ele>
        <time>2019-06-11T13:35:38Z</time>
      </trkpt>
      <trkpt lat="45.84103" lon="3.08262">
        <ele>485</ele>
        <time>2019-06-11T13:35:38Z</time>
      </trkpt>
      <trkpt lat="45.84103" lon="3.08248">
        <ele>485.5</ele>
        <time>2019-06-11T13:35:41Z</time>
      </trkpt>
      <trkpt lat="45.84098" lon="3.08205">
        <ele>486.9</ele>
        <time>2019-06-11T13:35:49Z</time>
      </trkpt>
      <trkpt lat="45.84084" lon="3.0812">
        <ele>493.4</ele>
        <time>2019-06-11T13:36:07Z</time>
      </trkpt>
      <trkpt lat="45.84081" lon="3.081">
        <ele>493</ele>
        <time>2019-06-11T13:36:11Z</time>
      </trkpt>
      <trkpt lat="45.84084" lon="3.0802">
        <ele>492.8</ele>
        <time>2019-06-11T13:36:25Z</time>
      </trkpt>
      <trkpt lat="45.84078" lon="3.07965">
        <ele>490.8</ele>
        <time>2019-06-11T13:36:35Z</time>
      </trkpt>
      <trkpt lat="45.8406" lon="3.07878">
        <ele>487.9</ele>
        <time>2019-06-11T13:36:50Z</time>
      </trkpt>
      <trkpt lat="45.84055" lon="3.07808">
        <ele>486.9</ele>
        <time>2019-06-11T13:37:03Z</time>
      </trkpt>
      <trkpt lat="45.84053" lon="3.07729">
        <ele>486.3</ele>
        <time>2019-06-11T13:37:16Z</time>
      </trkpt>
      <trkpt lat="45.84046" lon="3.07692">
        <ele>487.5</ele>
        <time>2019-06-11T13:37:23Z</time>
      </trkpt>
      <trkpt lat="45.84026" lon="3.07668">
        <ele>483.5</ele>
        <time>2019-06-11T13:37:30Z</time>
      </trkpt>
      <trkpt lat="45.84021" lon="3.07657">
        <ele>483</ele>
        <time>2019-06-11T13:37:32Z</time>
      </trkpt>
      <trkpt lat="45.84018" lon="3.07645">
        <ele>482.9</ele>
        <time>2019-06-11T13:37:34Z</time>
      </trkpt>
      <trkpt lat="45.84015" lon="3.0761">
        <ele>481.2</ele>
        <time>2019-06-11T13:37:40Z</time>
      </trkpt>
      <trkpt lat="45.84015" lon="3.07578">
        <ele>481.9</ele>
        <time>2019-06-11T13:37:46Z</time>
      </trkpt>
      <trkpt lat="45.84035" lon="3.07511">
        <ele>483.4</ele>
        <time>2019-06-11T13:37:59Z</time>
      </trkpt>
      <trkpt lat="45.84039" lon="3.07487">
        <ele>483.3</ele>
        <time>2019-06-11T13:38:03Z</time>
      </trkpt>
      <trkpt lat="45.84037" lon="3.07475">
        <ele>482.7</ele>
        <time>2019-06-11T13:38:05Z</time>
      </trkpt>
      <trkpt lat="45.84034" lon="3.07466">
        <ele>482.5</ele>
        <time>2019-06-11T13:38:07Z</time>
      </trkpt>
      <trkpt lat="45.84023" lon="3.0745">
        <ele>481.8</ele>
        <time>2019-06-11T13:38:11Z</time>
      </trkpt>
      <trkpt lat="45.83997" lon="3.07433">
        <ele>482.6</ele>
        <time>2019-06-11T13:38:18Z</time>
      </trkpt>
      <trkpt lat="45.83994" lon="3.07431">
        <ele>482.9</ele>
        <time>2019-06-11T13:38:19Z</time>
      </trkpt>
      <trkpt lat="45.83991" lon="3.07432">
        <ele>482.7</ele>
        <time>2019-06-11T13:38:20Z</time>
      </trkpt>
      <trkpt lat="45.83989" lon="3.07436">
        <ele>482.2</ele>
        <time>2019-06-11T13:38:20Z</time>
      </trkpt>
      <trkpt lat="45.8399" lon="3.0744">
        <ele>481.6</ele>
        <time>2019-06-11T13:38:21Z</time>
      </trkpt>
      <trkpt lat="45.83958" lon="3.07478">
        <ele>478.6</ele>
        <time>2019-06-11T13:38:30Z</time>
      </trkpt>
      <trkpt lat="45.83938" lon="3.07495">
        <ele>475.7</ele>
        <time>2019-06-11T13:38:35Z</time>
      </trkpt>
      <trkpt lat="45.83882" lon="3.07531">
        <ele>471.1</ele>
        <time>2019-06-11T13:38:49Z</time>
      </trkpt>
      <trkpt lat="45.83871" lon="3.07541">
        <ele>470.4</ele>
        <time>2019-06-11T13:38:52Z</time>
      </trkpt>
      <trkpt lat="45.83858" lon="3.07558">
        <ele>469</ele>
        <time>2019-06-11T13:38:56Z</time>
      </trkpt>
      <trkpt lat="45.83853" lon="3.07589">
        <ele>464.2</ele>
        <time>2019-06-11T13:39:01Z</time>
      </trkpt>
      <trkpt lat="45.83847" lon="3.07672">
        <ele>451.3</ele>
        <time>2019-06-11T13:39:15Z</time>
      </trkpt>
      <trkpt lat="45.83853" lon="3.07727">
        <ele>442.3</ele>
        <time>2019-06-11T13:39:24Z</time>
      </trkpt>
      <trkpt lat="45.83844" lon="3.07765">
        <ele>440</ele>
        <time>2019-06-11T13:39:30Z</time>
      </trkpt>
      <trkpt lat="45.8384" lon="3.07812">
        <ele>428.4</ele>
        <time>2019-06-11T13:39:38Z</time>
      </trkpt>
      <trkpt lat="45.83827" lon="3.07844">
        <ele>423</ele>
        <time>2019-06-11T13:39:45Z</time>
      </trkpt>
      <trkpt lat="45.83804" lon="3.07877">
        <ele>420</ele>
        <time>2019-06-11T13:39:53Z</time>
      </trkpt>
      <trkpt lat="45.83738" lon="3.07904">
        <ele>408.5</ele>
        <time>2019-06-11T13:40:09Z</time>
      </trkpt>
      <trkpt lat="45.83696" lon="3.07935">
        <ele>402.1</ele>
        <time>2019-06-11T13:40:20Z</time>
      </trkpt>
      <trkpt lat="45.83626" lon="3.0798">
        <ele>395.1</ele>
        <time>2019-06-11T13:40:38Z</time>
      </trkpt>
      <trkpt lat="45.83577" lon="3.07999">
        <ele>390.2</ele>
        <time>2019-06-11T13:40:50Z</time>
      </trkpt>
      <trkpt lat="45.83577" lon="3.08022">
        <ele>389</ele>
        <time>2019-06-11T13:40:54Z</time>
      </trkpt>
      <trkpt lat="45.83569" lon="3.08055">
        <ele>387</ele>
        <time>2019-06-11T13:40:59Z</time>
      </trkpt>
      <trkpt lat="45.83556" lon="3.08074">
        <ele>385.3</ele>
        <time>2019-06-11T13:41:03Z</time>
      </trkpt>
      <trkpt lat="45.83533" lon="3.08084">
        <ele>384.2</ele>
        <time>2019-06-11T13:41:09Z</time>
      </trkpt>
      <trkpt lat="45.83511" lon="3.08081">
        <ele>384.1</ele>
        <time>2019-06-11T13:41:14Z</time>
      </trkpt>
      <trkpt lat="45.83491" lon="3.0807">
        <ele>384.3</ele>
        <time>2019-06-11T13:41:19Z</time>
      </trkpt>
      <trkpt lat="45.83475" lon="3.08107">
        <ele>383.1</ele>
        <time>2019-06-11T13:41:27Z</time>
      </trkpt>
      <trkpt lat="45.83454" lon="3.08174">
        <ele>380.3</ele>
        <time>2019-06-11T13:41:40Z</time>
      </trkpt>
      <trkpt lat="45.83442" lon="3.08207">
        <ele>380.3</ele>
        <time>2019-06-11T13:41:47Z</time>
      </trkpt>
      <trkpt lat="45.83418" lon="3.08291">
        <ele>377.5</ele>
        <time>2019-06-11T13:42:02Z</time>
      </trkpt>
      <trkpt lat="45.83409" lon="3.08345">
        <ele>376</ele>
        <time>2019-06-11T13:42:12Z</time>
      </trkpt>
      <trkpt lat="45.83408" lon="3.08374">
        <ele>375.9</ele>
        <time>2019-06-11T13:42:17Z</time>
      </trkpt>
      <trkpt lat="45.83408" lon="3.08437">
        <ele>374.7</ele>
        <time>2019-06-11T13:42:28Z</time>
      </trkpt>
      <trkpt lat="45.83406" lon="3.08484">
        <ele>373.8</ele>
        <time>2019-06-11T13:42:36Z</time>
      </trkpt>
      <trkpt lat="45.83394" lon="3.08566">
        <ele>373</ele>
        <time>2019-06-11T13:42:51Z</time>
      </trkpt>
      <trkpt lat="45.83394" lon="3.08635">
        <ele>371.3</ele>
        <time>2019-06-11T13:43:03Z</time>
      </trkpt>
      <trkpt lat="45.83406" lon="3.08649">
        <ele>371.4</ele>
        <time>2019-06-11T13:43:07Z</time>
      </trkpt>
      <trkpt lat="45.83421" lon="3.0866">
        <ele>371.3</ele>
        <time>2019-06-11T13:43:10Z</time>
      </trkpt>
      <trkpt lat="45.83454" lon="3.08668">
        <ele>370.9</ele>
        <time>2019-06-11T13:43:18Z</time>
      </trkpt>
      <trkpt lat="45.83459" lon="3.08677">
        <ele>370.5</ele>
        <time>2019-06-11T13:43:20Z</time>
      </trkpt>
      <trkpt lat="45.8346" lon="3.08622">
        <ele>371.8</ele>
        <time>2019-06-11T13:43:28Z</time>
      </trkpt>
      <trkpt lat="45.83467" lon="3.08604">
        <ele>372</ele>
        <time>2019-06-11T13:43:31Z</time>
      </trkpt>
      <trkpt lat="45.83466" lon="3.08572">
        <ele>372.2</ele>
        <time>2019-06-11T13:43:36Z</time>
      </trkpt>
      <trkpt lat="45.83461" lon="3.0854">
        <ele>373</ele>
        <time>2019-06-11T13:43:42Z</time>
      </trkpt>
      <trkpt lat="45.83455" lon="3.08492">
        <ele>373.7</ele>
        <time>2019-06-11T13:43:49Z</time>
      </trkpt>
      <trkpt lat="45.83456" lon="3.0846">
        <ele>374.3</ele>
        <time>2019-06-11T13:43:54Z</time>
      </trkpt>
      <trkpt lat="45.83464" lon="3.0842">
        <ele>374.9</ele>
        <time>2019-06-11T13:44:00Z</time>
      </trkpt>
      <trkpt lat="45.8349" lon="3.08332">
        <ele>377.6</ele>
        <time>2019-06-11T13:44:15Z</time>
      </trkpt>
      <trkpt lat="45.8349" lon="3.08332">
        <ele>377.6</ele>
        <time>2019-06-11T13:44:15Z</time>
      </trkpt>
      <trkpt lat="45.83515" lon="3.08271">
        <ele>379.1</ele>
        <time>2019-06-11T13:44:26Z</time>
      </trkpt>
      <trkpt lat="45.83527" lon="3.08252">
        <ele>379.9</ele>
        <time>2019-06-11T13:44:30Z</time>
      </trkpt>
      <trkpt lat="45.83543" lon="3.08233">
        <ele>380.7</ele>
        <time>2019-06-11T13:44:35Z</time>
      </trkpt>
      <trkpt lat="45.83574" lon="3.08204">
        <ele>382.4</ele>
        <time>2019-06-11T13:44:43Z</time>
      </trkpt>
      <trkpt lat="45.83648" lon="3.08156">
        <ele>386.4</ele>
        <time>2019-06-11T13:45:01Z</time>
      </trkpt>
      <trkpt lat="45.8366" lon="3.08153">
        <ele>387.5</ele>
        <time>2019-06-11T13:45:04Z</time>
      </trkpt>
      <trkpt lat="45.83631" lon="3.08152">
        <ele>385.8</ele>
        <time>2019-06-11T13:45:11Z</time>
      </trkpt>
      <trkpt lat="45.83582" lon="3.08133">
        <ele>383.4</ele>
        <time>2019-06-11T13:45:24Z</time>
      </trkpt>
      <trkpt lat="45.83559" lon="3.08131">
        <ele>383.3</ele>
        <time>2019-06-11T13:45:30Z</time>
      </trkpt>
      <trkpt lat="45.83537" lon="3.08137">
        <ele>382.5</ele>
        <time>2019-06-11T13:45:35Z</time>
      </trkpt>
      <trkpt lat="45.83518" lon="3.0813">
        <ele>382.6</ele>
        <time>2019-06-11T13:45:40Z</time>
      </trkpt>
      <trkpt lat="45.83475" lon="3.08107">
        <ele>383.1</ele>
        <time>2019-06-11T13:45:52Z</time>
      </trkpt>
      <trkpt lat="45.83452" lon="3.08104">
        <ele>383.1</ele>
        <time>2019-06-11T13:45:58Z</time>
      </trkpt>
      <trkpt lat="45.83368" lon="3.08059">
        <ele>382.7</ele>
        <time>2019-06-11T13:46:20Z</time>
      </trkpt>
      <trkpt lat="45.83317" lon="3.08033">
        <ele>383.8</ele>
        <time>2019-06-11T13:46:33Z</time>
      </trkpt>
      <trkpt lat="45.83281" lon="3.08009">
        <ele>385.4</ele>
        <time>2019-06-11T13:46:43Z</time>
      </trkpt>
      <trkpt lat="45.83255" lon="3.07987">
        <ele>386</ele>
        <time>2019-06-11T13:46:51Z</time>
      </trkpt>
      <trkpt lat="45.83219" lon="3.0795">
        <ele>385.6</ele>
        <time>2019-06-11T13:47:02Z</time>
      </trkpt>
      <trkpt lat="45.83157" lon="3.07891">
        <ele>386.2</ele>
        <time>2019-06-11T13:47:21Z</time>
      </trkpt>
      <trkpt lat="45.83139" lon="3.07878">
        <ele>387.4</ele>
        <time>2019-06-11T13:47:26Z</time>
      </trkpt>
      <trkpt lat="45.831" lon="3.07854">
        <ele>389.2</ele>
        <time>2019-06-11T13:47:36Z</time>
      </trkpt>
      <trkpt lat="45.83086" lon="3.07848">
        <ele>390.3</ele>
        <time>2019-06-11T13:47:40Z</time>
      </trkpt>
      <trkpt lat="45.83088" lon="3.07829">
        <ele>391</ele>
        <time>2019-06-11T13:47:44Z</time>
      </trkpt>
      <trkpt lat="45.83093" lon="3.07809">
        <ele>391.5</ele>
        <time>2019-06-11T13:47:47Z</time>
      </trkpt>
      <trkpt lat="45.83104" lon="3.0777">
        <ele>392.9</ele>
        <time>2019-06-11T13:47:55Z</time>
      </trkpt>
      <trkpt lat="45.83109" lon="3.07732">
        <ele>396.2</ele>
        <time>2019-06-11T13:48:03Z</time>
      </trkpt>
      <trkpt lat="45.83146" lon="3.07732">
        <ele>398.4</ele>
        <time>2019-06-11T13:48:11Z</time>
      </trkpt>
      <trkpt lat="45.83146" lon="3.07718">
        <ele>400.4</ele>
        <time>2019-06-11T13:48:13Z</time>
      </trkpt>
      <trkpt lat="45.83154" lon="3.07715">
        <ele>403.1</ele>
        <time>2019-06-11T13:48:15Z</time>
      </trkpt>
      <trkpt lat="45.83202" lon="3.07704">
        <ele>413.8</ele>
        <time>2019-06-11T13:48:26Z</time>
      </trkpt>
      <trkpt lat="45.83207" lon="3.07687">
        <ele>420.5</ele>
        <time>2019-06-11T13:48:29Z</time>
      </trkpt>
      <trkpt lat="45.83216" lon="3.07678">
        <ele>424.7</ele>
        <time>2019-06-11T13:48:31Z</time>
      </trkpt>
      <trkpt lat="45.83256" lon="3.07656">
        <ele>436.9</ele>
        <time>2019-06-11T13:48:42Z</time>
      </trkpt>
      <trkpt lat="45.83291" lon="3.0763">
        <ele>448.2</ele>
        <time>2019-06-11T13:48:51Z</time>
      </trkpt>
      <trkpt lat="45.83314" lon="3.07619">
        <ele>453.3</ele>
        <time>2019-06-11T13:48:56Z</time>
      </trkpt>
      <trkpt lat="45.83355" lon="3.07613">
        <ele>457.8</ele>
        <time>2019-06-11T13:49:05Z</time>
      </trkpt>
      <trkpt lat="45.83367" lon="3.07601">
        <ele>462.4</ele>
        <time>2019-06-11T13:49:09Z</time>
      </trkpt>
      <trkpt lat="45.83382" lon="3.07601">
        <ele>463.6</ele>
        <time>2019-06-11T13:49:12Z</time>
      </trkpt>
      <trkpt lat="45.83399" lon="3.07608">
        <ele>462.8</ele>
        <time>2019-06-11T13:49:16Z</time>
      </trkpt>
      <trkpt lat="45.83438" lon="3.07604">
        <ele>468</ele>
        <time>2019-06-11T13:49:25Z</time>
      </trkpt>
      <trkpt lat="45.83442" lon="3.07598">
        <ele>470</ele>
        <time>2019-06-11T13:49:26Z</time>
      </trkpt>
      <trkpt lat="45.8345" lon="3.07603">
        <ele>469.7</ele>
        <time>2019-06-11T13:49:28Z</time>
      </trkpt>
      <trkpt lat="45.83456" lon="3.07584">
        <ele>474.7</ele>
        <time>2019-06-11T13:49:31Z</time>
      </trkpt>
      <trkpt lat="45.83453" lon="3.07569">
        <ele>478</ele>
        <time>2019-06-11T13:49:35Z</time>
      </trkpt>
      <trkpt lat="45.83469" lon="3.07507">
        <ele>492</ele>
        <time>2019-06-11T13:49:45Z</time>
      </trkpt>
      <trkpt lat="45.83469" lon="3.07507">
        <ele>492</ele>
        <time>2019-06-11T13:49:45Z</time>
      </trkpt>
      <trkpt lat="45.83471" lon="3.07498">
        <ele>493.4</ele>
        <time>2019-06-11T13:49:46Z</time>
      </trkpt>
      <trkpt lat="45.83485" lon="3.07499">
        <ele>492.2</ele>
        <time>2019-06-11T13:49:50Z</time>
      </trkpt>
      <trkpt lat="45.83498" lon="3.07497">
        <ele>491.6</ele>
        <time>2019-06-11T13:49:53Z</time>
      </trkpt>
      <trkpt lat="45.8351" lon="3.075">
        <ele>489.6</ele>
        <time>2019-06-11T13:49:55Z</time>
      </trkpt>
      <trkpt lat="45.83522" lon="3.07498">
        <ele>488</ele>
        <time>2019-06-11T13:49:59Z</time>
      </trkpt>
      <trkpt lat="45.83542" lon="3.07491">
        <ele>485.4</ele>
        <time>2019-06-11T13:50:04Z</time>
      </trkpt>
      <trkpt lat="45.83566" lon="3.07458">
        <ele>485.1</ele>
        <time>2019-06-11T13:50:12Z</time>
      </trkpt>
      <trkpt lat="45.83576" lon="3.07448">
        <ele>484.8</ele>
        <time>2019-06-11T13:50:15Z</time>
      </trkpt>
      <trkpt lat="45.8361" lon="3.07396">
        <ele>485.2</ele>
        <time>2019-06-11T13:50:27Z</time>
      </trkpt>
      <trkpt lat="45.83623" lon="3.07379">
        <ele>486.9</ele>
        <time>2019-06-11T13:50:31Z</time>
      </trkpt>
      <trkpt lat="45.8363" lon="3.07376">
        <ele>487.1</ele>
        <time>2019-06-11T13:50:32Z</time>
      </trkpt>
      <trkpt lat="45.83672" lon="3.0738">
        <ele>486.2</ele>
        <time>2019-06-11T13:50:42Z</time>
      </trkpt>
      <trkpt lat="45.83702" lon="3.07388">
        <ele>486.6</ele>
        <time>2019-06-11T13:50:49Z</time>
      </trkpt>
      <trkpt lat="45.83736" lon="3.07395">
        <ele>489</ele>
        <time>2019-06-11T13:50:57Z</time>
      </trkpt>
      <trkpt lat="45.83762" lon="3.07409">
        <ele>489.3</ele>
        <time>2019-06-11T13:51:04Z</time>
      </trkpt>
      <trkpt lat="45.8379" lon="3.07419">
        <ele>488.7</ele>
        <time>2019-06-11T13:51:11Z</time>
      </trkpt>
      <trkpt lat="45.83812" lon="3.07422">
        <ele>487.8</ele>
        <time>2019-06-11T13:51:16Z</time>
      </trkpt>
      <trkpt lat="45.83913" lon="3.07426">
        <ele>483.4</ele>
        <time>2019-06-11T13:51:40Z</time>
      </trkpt>
      <trkpt lat="45.83861" lon="3.07502">
        <ele>475.8</ele>
        <time>2019-06-11T13:51:58Z</time>
      </trkpt>
      <trkpt lat="45.83854" lon="3.07519">
        <ele>474.3</ele>
        <time>2019-06-11T13:52:02Z</time>
      </trkpt>
      <trkpt lat="45.83851" lon="3.07532">
        <ele>472.9</ele>
        <time>2019-06-11T13:52:04Z</time>
      </trkpt>
      <trkpt lat="45.83858" lon="3.07558">
        <ele>469</ele>
        <time>2019-06-11T13:52:09Z</time>
      </trkpt>
      <trkpt lat="45.8384" lon="3.07607">
        <ele>464.3</ele>
        <time>2019-06-11T13:52:18Z</time>
      </trkpt>
      <trkpt lat="45.83823" lon="3.07672">
        <ele>460.5</ele>
        <time>2019-06-11T13:52:29Z</time>
      </trkpt>
      <trkpt lat="45.83822" lon="3.07708">
        <ele>457.9</ele>
        <time>2019-06-11T13:52:35Z</time>
      </trkpt>
      <trkpt lat="45.83821" lon="3.07727">
        <ele>457.1</ele>
        <time>2019-06-11T13:52:38Z</time>
      </trkpt>
      <trkpt lat="45.83813" lon="3.0775">
        <ele>454.8</ele>
        <time>2019-06-11T13:52:42Z</time>
      </trkpt>
      <trkpt lat="45.83798" lon="3.07773">
        <ele>454.1</ele>
        <time>2019-06-11T13:52:47Z</time>
      </trkpt>
      <trkpt lat="45.83791" lon="3.07781">
        <ele>452.7</ele>
        <time>2019-06-11T13:52:49Z</time>
      </trkpt>
      <trkpt lat="45.83781" lon="3.07786">
        <ele>451.5</ele>
        <time>2019-06-11T13:52:51Z</time>
      </trkpt>
      <trkpt lat="45.83771" lon="3.07787">
        <ele>450.6</ele>
        <time>2019-06-11T13:52:53Z</time>
      </trkpt>
      <trkpt lat="45.8376" lon="3.07783">
        <ele>450.4</ele>
        <time>2019-06-11T13:52:56Z</time>
      </trkpt>
      <trkpt lat="45.8375" lon="3.07774">
        <ele>451.2</ele>
        <time>2019-06-11T13:52:59Z</time>
      </trkpt>
      <trkpt lat="45.83743" lon="3.0776">
        <ele>449.7</ele>
        <time>2019-06-11T13:53:01Z</time>
      </trkpt>
      <trkpt lat="45.8373" lon="3.07717">
        <ele>448.6</ele>
        <time>2019-06-11T13:53:09Z</time>
      </trkpt>
      <trkpt lat="45.83721" lon="3.07701">
        <ele>447.3</ele>
        <time>2019-06-11T13:53:12Z</time>
      </trkpt>
      <trkpt lat="45.83711" lon="3.07694">
        <ele>446.5</ele>
        <time>2019-06-11T13:53:14Z</time>
      </trkpt>
      <trkpt lat="45.83701" lon="3.07691">
        <ele>445.4</ele>
        <time>2019-06-11T13:53:17Z</time>
      </trkpt>
      <trkpt lat="45.83691" lon="3.07693">
        <ele>444.4</ele>
        <time>2019-06-11T13:53:19Z</time>
      </trkpt>
      <trkpt lat="45.83679" lon="3.07701">
        <ele>444.3</ele>
        <time>2019-06-11T13:53:22Z</time>
      </trkpt>
      <trkpt lat="45.83638" lon="3.07778">
        <ele>438.2</ele>
        <time>2019-06-11T13:53:37Z</time>
      </trkpt>
      <trkpt lat="45.83614" lon="3.07807">
        <ele>434.9</ele>
        <time>2019-06-11T13:53:44Z</time>
      </trkpt>
      <trkpt lat="45.83601" lon="3.07813">
        <ele>432.8</ele>
        <time>2019-06-11T13:53:48Z</time>
      </trkpt>
      <trkpt lat="45.8356" lon="3.0782">
        <ele>430.1</ele>
        <time>2019-06-11T13:53:57Z</time>
      </trkpt>
      <trkpt lat="45.83506" lon="3.07811">
        <ele>426.3</ele>
        <time>2019-06-11T13:54:09Z</time>
      </trkpt>
      <trkpt lat="45.83448" lon="3.07792">
        <ele>423.5</ele>
        <time>2019-06-11T13:54:22Z</time>
      </trkpt>
      <trkpt lat="45.83411" lon="3.07774">
        <ele>419.7</ele>
        <time>2019-06-11T13:54:31Z</time>
      </trkpt>
      <trkpt lat="45.83383" lon="3.07752">
        <ele>416</ele>
        <time>2019-06-11T13:54:39Z</time>
      </trkpt>
      <trkpt lat="45.83368" lon="3.07737">
        <ele>415.7</ele>
        <time>2019-06-11T13:54:44Z</time>
      </trkpt>
      <trkpt lat="45.83345" lon="3.07733">
        <ele>414.4</ele>
        <time>2019-06-11T13:54:50Z</time>
      </trkpt>
      <trkpt lat="45.83263" lon="3.07746">
        <ele>407.2</ele>
        <time>2019-06-11T13:55:09Z</time>
      </trkpt>
      <trkpt lat="45.83236" lon="3.07753">
        <ele>404.8</ele>
        <time>2019-06-11T13:55:15Z</time>
      </trkpt>
      <trkpt lat="45.83208" lon="3.07752">
        <ele>402.6</ele>
        <time>2019-06-11T13:55:21Z</time>
      </trkpt>
      <trkpt lat="45.83146" lon="3.07732">
        <ele>398.4</ele>
        <time>2019-06-11T13:55:37Z</time>
      </trkpt>
      <trkpt lat="45.83146" lon="3.07718">
        <ele>400.4</ele>
        <time>2019-06-11T13:55:39Z</time>
      </trkpt>
      <trkpt lat="45.83148" lon="3.07717">
        <ele>401</ele>
        <time>2019-06-11T13:55:39Z</time>
      </trkpt>
      <trkpt lat="45.83148" lon="3.07717">
        <ele>401</ele>
        <time>2019-06-11T13:55:39Z</time>
      </trkpt>
      <trkpt lat="45.83202" lon="3.07704">
        <ele>413.8</ele>
        <time>2019-06-11T13:55:52Z</time>
      </trkpt>
      <trkpt lat="45.83207" lon="3.07687">
        <ele>420.5</ele>
        <time>2019-06-11T13:55:55Z</time>
      </trkpt>
      <trkpt lat="45.83216" lon="3.07678">
        <ele>424.7</ele>
        <time>2019-06-11T13:55:57Z</time>
      </trkpt>
      <trkpt lat="45.83256" lon="3.07656">
        <ele>436.9</ele>
        <time>2019-06-11T13:56:08Z</time>
      </trkpt>
      <trkpt lat="45.83291" lon="3.0763">
        <ele>448.2</ele>
        <time>2019-06-11T13:56:17Z</time>
      </trkpt>
      <trkpt lat="45.83314" lon="3.07619">
        <ele>453.3</ele>
        <time>2019-06-11T13:56:22Z</time>
      </trkpt>
      <trkpt lat="45.83355" lon="3.07613">
        <ele>457.8</ele>
        <time>2019-06-11T13:56:32Z</time>
      </trkpt>
      <trkpt lat="45.83367" lon="3.07601">
        <ele>462.4</ele>
        <time>2019-06-11T13:56:35Z</time>
      </trkpt>
      <trkpt lat="45.83382" lon="3.07601">
        <ele>463.6</ele>
        <time>2019-06-11T13:56:38Z</time>
      </trkpt>
      <trkpt lat="45.83399" lon="3.07608">
        <ele>462.8</ele>
        <time>2019-06-11T13:56:42Z</time>
      </trkpt>
      <trkpt lat="45.83438" lon="3.07604">
        <ele>468</ele>
        <time>2019-06-11T13:56:51Z</time>
      </trkpt>
      <trkpt lat="45.83442" lon="3.07598">
        <ele>470</ele>
        <time>2019-06-11T13:56:53Z</time>
      </trkpt>
      <trkpt lat="45.8345" lon="3.07603">
        <ele>469.7</ele>
        <time>2019-06-11T13:56:55Z</time>
      </trkpt>
      <trkpt lat="45.83456" lon="3.07584">
        <ele>474.7</ele>
        <time>2019-06-11T13:56:58Z</time>
      </trkpt>
      <trkpt lat="45.83453" lon="3.07569">
        <ele>478</ele>
        <time>2019-06-11T13:57:01Z</time>
      </trkpt>
      <trkpt lat="45.83471" lon="3.07498">
        <ele>493.4</ele>
        <time>2019-06-11T13:57:13Z</time>
      </trkpt>
      <trkpt lat="45.83485" lon="3.07499">
        <ele>492.2</ele>
        <time>2019-06-11T13:57:16Z</time>
      </trkpt>
      <trkpt lat="45.83498" lon="3.07497">
        <ele>491.6</ele>
        <time>2019-06-11T13:57:19Z</time>
      </trkpt>
      <trkpt lat="45.8351" lon="3.075">
        <ele>489.6</ele>
        <time>2019-06-11T13:57:22Z</time>
      </trkpt>
      <trkpt lat="45.83522" lon="3.07498">
        <ele>488</ele>
        <time>2019-06-11T13:57:26Z</time>
      </trkpt>
      <trkpt lat="45.83542" lon="3.07491">
        <ele>485.4</ele>
        <time>2019-06-11T13:57:31Z</time>
      </trkpt>
      <trkpt lat="45.83566" lon="3.07458">
        <ele>485.1</ele>
        <time>2019-06-11T13:57:38Z</time>
      </trkpt>
      <trkpt lat="45.83576" lon="3.07448">
        <ele>484.8</ele>
        <time>2019-06-11T13:57:41Z</time>
      </trkpt>
      <trkpt lat="45.8361" lon="3.07396">
        <ele>485.2</ele>
        <time>2019-06-11T13:57:52Z</time>
      </trkpt>
      <trkpt lat="45.83623" lon="3.07379">
        <ele>486.9</ele>
        <time>2019-06-11T13:57:56Z</time>
      </trkpt>
      <trkpt lat="45.8363" lon="3.07376">
        <ele>487.1</ele>
        <time>2019-06-11T13:57:58Z</time>
      </trkpt>
      <trkpt lat="45.83642" lon="3.07377">
        <ele>486.8</ele>
        <time>2019-06-11T13:58:00Z</time>
      </trkpt>
      <trkpt lat="45.83672" lon="3.0738">
        <ele>486.2</ele>
        <time>2019-06-11T13:58:07Z</time>
      </trkpt>
      <trkpt lat="45.83702" lon="3.07388">
        <ele>486.6</ele>
        <time>2019-06-11T13:58:14Z</time>
      </trkpt>
      <trkpt lat="45.8372" lon="3.07391">
        <ele>487.5</ele>
        <time>2019-06-11T13:58:18Z</time>
      </trkpt>
      <trkpt lat="45.83736" lon="3.07395">
        <ele>489</ele>
        <time>2019-06-11T13:58:22Z</time>
      </trkpt>
      <trkpt lat="45.83762" lon="3.07409">
        <ele>489.3</ele>
        <time>2019-06-11T13:58:28Z</time>
      </trkpt>
      <trkpt lat="45.8379" lon="3.07419">
        <ele>488.7</ele>
        <time>2019-06-11T13:58:35Z</time>
      </trkpt>
      <trkpt lat="45.83812" lon="3.07422">
        <ele>487.8</ele>
        <time>2019-06-11T13:58:40Z</time>
      </trkpt>
      <trkpt lat="45.83815" lon="3.07409">
        <ele>489.7</ele>
        <time>2019-06-11T13:58:43Z</time>
      </trkpt>
      <trkpt lat="45.83876" lon="3.07293">
        <ele>500.5</ele>
        <time>2019-06-11T13:59:08Z</time>
      </trkpt>
      <trkpt lat="45.83906" lon="3.07254">
        <ele>501.7</ele>
        <time>2019-06-11T13:59:19Z</time>
      </trkpt>
      <trkpt lat="45.83899" lon="3.07229">
        <ele>503</ele>
        <time>2019-06-11T13:59:24Z</time>
      </trkpt>
      <trkpt lat="45.8389" lon="3.07147">
        <ele>503.4</ele>
        <time>2019-06-11T13:59:38Z</time>
      </trkpt>
      <trkpt lat="45.83861" lon="3.07142">
        <ele>503.2</ele>
        <time>2019-06-11T13:59:45Z</time>
      </trkpt>
      <trkpt lat="45.83888" lon="3.07148">
        <ele>503.3</ele>
        <time>2019-06-11T13:59:51Z</time>
      </trkpt>
      <trkpt lat="45.83897" lon="3.07081">
        <ele>501.6</ele>
        <time>2019-06-11T14:00:02Z</time>
      </trkpt>
      <trkpt lat="45.83897" lon="3.07043">
        <ele>500.8</ele>
        <time>2019-06-11T14:00:07Z</time>
      </trkpt>
      <trkpt lat="45.83893" lon="3.07023">
        <ele>500.1</ele>
        <time>2019-06-11T14:00:11Z</time>
      </trkpt>
      <trkpt lat="45.8389" lon="3.06944">
        <ele>499</ele>
        <time>2019-06-11T14:00:23Z</time>
      </trkpt>
      <trkpt lat="45.83893" lon="3.06888">
        <ele>498.8</ele>
        <time>2019-06-11T14:00:32Z</time>
      </trkpt>
      <trkpt lat="45.83899" lon="3.06836">
        <ele>498</ele>
        <time>2019-06-11T14:00:40Z</time>
      </trkpt>
      <trkpt lat="45.83912" lon="3.06784">
        <ele>498</ele>
        <time>2019-06-11T14:00:48Z</time>
      </trkpt>
      <trkpt lat="45.83947" lon="3.06683">
        <ele>497.9</ele>
        <time>2019-06-11T14:01:06Z</time>
      </trkpt>
      <trkpt lat="45.83952" lon="3.06656">
        <ele>497.5</ele>
        <time>2019-06-11T14:01:10Z</time>
      </trkpt>
      <trkpt lat="45.83964" lon="3.06609">
        <ele>497</ele>
        <time>2019-06-11T14:01:18Z</time>
      </trkpt>
      <trkpt lat="45.83975" lon="3.06521">
        <ele>498</ele>
        <time>2019-06-11T14:01:32Z</time>
      </trkpt>
      <trkpt lat="45.83998" lon="3.06425">
        <ele>505.1</ele>
        <time>2019-06-11T14:01:48Z</time>
      </trkpt>
      <trkpt lat="45.84014" lon="3.06354">
        <ele>508</ele>
        <time>2019-06-11T14:01:59Z</time>
      </trkpt>
      <trkpt lat="45.84021" lon="3.06338">
        <ele>508</ele>
        <time>2019-06-11T14:02:02Z</time>
      </trkpt>
      <trkpt lat="45.84022" lon="3.06323">
        <ele>508.3</ele>
        <time>2019-06-11T14:02:04Z</time>
      </trkpt>
      <trkpt lat="45.84021" lon="3.0631">
        <ele>508.6</ele>
        <time>2019-06-11T14:02:06Z</time>
      </trkpt>
      <trkpt lat="45.84035" lon="3.06227">
        <ele>508.2</ele>
        <time>2019-06-11T14:02:20Z</time>
      </trkpt>
      <trkpt lat="45.84045" lon="3.06191">
        <ele>508.6</ele>
        <time>2019-06-11T14:02:26Z</time>
      </trkpt>
      <trkpt lat="45.84061" lon="3.06155">
        <ele>509.4</ele>
        <time>2019-06-11T14:02:32Z</time>
      </trkpt>
      <trkpt lat="45.84076" lon="3.06102">
        <ele>510.5</ele>
        <time>2019-06-11T14:02:41Z</time>
      </trkpt>
      <trkpt lat="45.84067" lon="3.06042">
        <ele>510.5</ele>
        <time>2019-06-11T14:02:51Z</time>
      </trkpt>
      <trkpt lat="45.84066" lon="3.05988">
        <ele>511</ele>
        <time>2019-06-11T14:02:59Z</time>
      </trkpt>
      <trkpt lat="45.84069" lon="3.05904">
        <ele>513.4</ele>
        <time>2019-06-11T14:03:12Z</time>
      </trkpt>
      <trkpt lat="45.84077" lon="3.05891">
        <ele>514.1</ele>
        <time>2019-06-11T14:03:15Z</time>
      </trkpt>
      <trkpt lat="45.84068" lon="3.05858">
        <ele>515.7</ele>
        <time>2019-06-11T14:03:20Z</time>
      </trkpt>
      <trkpt lat="45.84064" lon="3.05824">
        <ele>517.3</ele>
        <time>2019-06-11T14:03:26Z</time>
      </trkpt>
      <trkpt lat="45.84083" lon="3.05703">
        <ele>520</ele>
        <time>2019-06-11T14:03:45Z</time>
      </trkpt>
      <trkpt lat="45.84082" lon="3.05671">
        <ele>520.8</ele>
        <time>2019-06-11T14:03:50Z</time>
      </trkpt>
      <trkpt lat="45.84092" lon="3.05485">
        <ele>523</ele>
        <time>2019-06-11T14:04:19Z</time>
      </trkpt>
      <trkpt lat="45.8409" lon="3.05407">
        <ele>524.1</ele>
        <time>2019-06-11T14:04:31Z</time>
      </trkpt>
      <trkpt lat="45.84095" lon="3.05316">
        <ele>525.3</ele>
        <time>2019-06-11T14:04:45Z</time>
      </trkpt>
      <trkpt lat="45.84088" lon="3.05239">
        <ele>526.9</ele>
        <time>2019-06-11T14:04:57Z</time>
      </trkpt>
      <trkpt lat="45.84087" lon="3.05211">
        <ele>527.4</ele>
        <time>2019-06-11T14:05:01Z</time>
      </trkpt>
      <trkpt lat="45.84084" lon="3.05197">
        <ele>527.9</ele>
        <time>2019-06-11T14:05:04Z</time>
      </trkpt>
      <trkpt lat="45.83998" lon="3.05188">
        <ele>527.2</ele>
        <time>2019-06-11T14:05:23Z</time>
      </trkpt>
      <trkpt lat="45.83988" lon="3.05185">
        <ele>527.2</ele>
        <time>2019-06-11T14:05:25Z</time>
      </trkpt>
      <trkpt lat="45.83979" lon="3.05173">
        <ele>527.2</ele>
        <time>2019-06-11T14:05:28Z</time>
      </trkpt>
      <trkpt lat="45.83968" lon="3.05141">
        <ele>527.9</ele>
        <time>2019-06-11T14:05:33Z</time>
      </trkpt>
      <trkpt lat="45.8396" lon="3.05124">
        <ele>527.8</ele>
        <time>2019-06-11T14:05:37Z</time>
      </trkpt>
      <trkpt lat="45.83901" lon="3.05056">
        <ele>526.4</ele>
        <time>2019-06-11T14:05:53Z</time>
      </trkpt>
      <trkpt lat="45.83884" lon="3.05044">
        <ele>525.8</ele>
        <time>2019-06-11T14:05:58Z</time>
      </trkpt>
      <trkpt lat="45.83832" lon="3.0502">
        <ele>525.3</ele>
        <time>2019-06-11T14:06:10Z</time>
      </trkpt>
      <trkpt lat="45.83797" lon="3.04984">
        <ele>525.7</ele>
        <time>2019-06-11T14:06:19Z</time>
      </trkpt>
      <trkpt lat="45.83773" lon="3.04948">
        <ele>524.7</ele>
        <time>2019-06-11T14:06:27Z</time>
      </trkpt>
      <trkpt lat="45.83753" lon="3.04923">
        <ele>523.2</ele>
        <time>2019-06-11T14:06:33Z</time>
      </trkpt>
      <trkpt lat="45.83738" lon="3.04897">
        <ele>520.6</ele>
        <time>2019-06-11T14:06:38Z</time>
      </trkpt>
      <trkpt lat="45.83727" lon="3.04892">
        <ele>520</ele>
        <time>2019-06-11T14:06:41Z</time>
      </trkpt>
      <trkpt lat="45.83699" lon="3.04874">
        <ele>518.7</ele>
        <time>2019-06-11T14:06:48Z</time>
      </trkpt>
      <trkpt lat="45.83612" lon="3.04789">
        <ele>516</ele>
        <time>2019-06-11T14:07:11Z</time>
      </trkpt>
      <trkpt lat="45.83548" lon="3.04711">
        <ele>515.5</ele>
        <time>2019-06-11T14:07:30Z</time>
      </trkpt>
      <trkpt lat="45.83409" lon="3.04522">
        <ele>518.5</ele>
        <time>2019-06-11T14:08:12Z</time>
      </trkpt>
      <trkpt lat="45.83399" lon="3.04506">
        <ele>519.1</ele>
        <time>2019-06-11T14:08:16Z</time>
      </trkpt>
      <trkpt lat="45.83391" lon="3.0449">
        <ele>521.1</ele>
        <time>2019-06-11T14:08:22Z</time>
      </trkpt>
      <trkpt lat="45.83375" lon="3.04453">
        <ele>524.3</ele>
        <time>2019-06-11T14:08:28Z</time>
      </trkpt>
      <trkpt lat="45.83336" lon="3.04467">
        <ele>521.5</ele>
        <time>2019-06-11T14:08:38Z</time>
      </trkpt>
      <trkpt lat="45.8331" lon="3.04484">
        <ele>520.2</ele>
        <time>2019-06-11T14:08:44Z</time>
      </trkpt>
      <trkpt lat="45.83286" lon="3.04494">
        <ele>518.6</ele>
        <time>2019-06-11T14:08:49Z</time>
      </trkpt>
      <trkpt lat="45.83264" lon="3.04499">
        <ele>517.5</ele>
        <time>2019-06-11T14:08:58Z</time>
      </trkpt>
      <trkpt lat="45.83251" lon="3.04499">
        <ele>517.3</ele>
        <time>2019-06-11T14:09:01Z</time>
      </trkpt>
      <trkpt lat="45.83196" lon="3.04491">
        <ele>516.3</ele>
        <time>2019-06-11T14:09:15Z</time>
      </trkpt>
      <trkpt lat="45.83175" lon="3.04484">
        <ele>513.6</ele>
        <time>2019-06-11T14:09:21Z</time>
      </trkpt>
      <trkpt lat="45.83164" lon="3.04474">
        <ele>513.9</ele>
        <time>2019-06-11T14:09:24Z</time>
      </trkpt>
      <trkpt lat="45.83143" lon="3.04437">
        <ele>515</ele>
        <time>2019-06-11T14:09:31Z</time>
      </trkpt>
      <trkpt lat="45.83132" lon="3.04429">
        <ele>513.9</ele>
        <time>2019-06-11T14:09:34Z</time>
      </trkpt>
      <trkpt lat="45.83123" lon="3.04427">
        <ele>512.8</ele>
        <time>2019-06-11T14:09:36Z</time>
      </trkpt>
      <trkpt lat="45.83116" lon="3.04428">
        <ele>511.7</ele>
        <time>2019-06-11T14:09:38Z</time>
      </trkpt>
      <trkpt lat="45.83107" lon="3.04434">
        <ele>511.8</ele>
        <time>2019-06-11T14:09:40Z</time>
      </trkpt>
      <trkpt lat="45.83099" lon="3.04447">
        <ele>513.7</ele>
        <time>2019-06-11T14:09:49Z</time>
      </trkpt>
      <trkpt lat="45.83087" lon="3.04467">
        <ele>514.6</ele>
        <time>2019-06-11T14:09:53Z</time>
      </trkpt>
      <trkpt lat="45.83072" lon="3.04527">
        <ele>517.5</ele>
        <time>2019-06-11T14:10:03Z</time>
      </trkpt>
      <trkpt lat="45.83029" lon="3.04585">
        <ele>515.1</ele>
        <time>2019-06-11T14:10:17Z</time>
      </trkpt>
      <trkpt lat="45.83001" lon="3.04603">
        <ele>513.9</ele>
        <time>2019-06-11T14:10:25Z</time>
      </trkpt>
      <trkpt lat="45.82952" lon="3.04622">
        <ele>510.1</ele>
        <time>2019-06-11T14:10:36Z</time>
      </trkpt>
      <trkpt lat="45.82907" lon="3.04636">
        <ele>506.4</ele>
        <time>2019-06-11T14:10:46Z</time>
      </trkpt>
      <trkpt lat="45.82874" lon="3.04639">
        <ele>508.5</ele>
        <time>2019-06-11T14:10:53Z</time>
      </trkpt>
      <trkpt lat="45.82842" lon="3.04631">
        <ele>512.9</ele>
        <time>2019-06-11T14:11:01Z</time>
      </trkpt>
      <trkpt lat="45.8283" lon="3.04595">
        <ele>520.8</ele>
        <time>2019-06-11T14:11:07Z</time>
      </trkpt>
      <trkpt lat="45.82834" lon="3.04548">
        <ele>529.8</ele>
        <time>2019-06-11T14:11:16Z</time>
      </trkpt>
      <trkpt lat="45.82852" lon="3.04582">
        <ele>530.8</ele>
        <time>2019-06-11T14:11:24Z</time>
      </trkpt>
      <trkpt lat="45.82887" lon="3.04578">
        <ele>535.7</ele>
        <time>2019-06-11T14:11:34Z</time>
      </trkpt>
      <trkpt lat="45.82929" lon="3.04545">
        <ele>543.2</ele>
        <time>2019-06-11T14:11:44Z</time>
      </trkpt>
      <trkpt lat="45.82968" lon="3.04518">
        <ele>551</ele>
        <time>2019-06-11T14:11:54Z</time>
      </trkpt>
      <trkpt lat="45.82999" lon="3.04489">
        <ele>554.5</ele>
        <time>2019-06-11T14:12:03Z</time>
      </trkpt>
      <trkpt lat="45.83019" lon="3.04454">
        <ele>551.7</ele>
        <time>2019-06-11T14:12:13Z</time>
      </trkpt>
      <trkpt lat="45.83001" lon="3.04408">
        <ele>558.9</ele>
        <time>2019-06-11T14:12:24Z</time>
      </trkpt>
      <trkpt lat="45.83" lon="3.04375">
        <ele>560.5</ele>
        <time>2019-06-11T14:12:29Z</time>
      </trkpt>
      <trkpt lat="45.83003" lon="3.0433">
        <ele>559.9</ele>
        <time>2019-06-11T14:12:36Z</time>
      </trkpt>
      <trkpt lat="45.82988" lon="3.04297">
        <ele>567.5</ele>
        <time>2019-06-11T14:12:42Z</time>
      </trkpt>
      <trkpt lat="45.82975" lon="3.04242">
        <ele>571.8</ele>
        <time>2019-06-11T14:12:51Z</time>
      </trkpt>
      <trkpt lat="45.82961" lon="3.04203">
        <ele>572</ele>
        <time>2019-06-11T14:12:58Z</time>
      </trkpt>
      <trkpt lat="45.82881" lon="3.04131">
        <ele>591.7</ele>
        <time>2019-06-11T14:13:19Z</time>
      </trkpt>
      <trkpt lat="45.8282" lon="3.04068">
        <ele>602</ele>
        <time>2019-06-11T14:13:36Z</time>
      </trkpt>
      <trkpt lat="45.8275" lon="3.03989">
        <ele>613.8</ele>
        <time>2019-06-11T14:13:56Z</time>
      </trkpt>
      <trkpt lat="45.82703" lon="3.03926">
        <ele>621</ele>
        <time>2019-06-11T14:14:11Z</time>
      </trkpt>
      <trkpt lat="45.82678" lon="3.03904">
        <ele>625</ele>
        <time>2019-06-11T14:14:18Z</time>
      </trkpt>
      <trkpt lat="45.82642" lon="3.03889">
        <ele>629.5</ele>
        <time>2019-06-11T14:14:28Z</time>
      </trkpt>
      <trkpt lat="45.82635" lon="3.03862">
        <ele>630.9</ele>
        <time>2019-06-11T14:14:32Z</time>
      </trkpt>
      <trkpt lat="45.8261" lon="3.03778">
        <ele>637.2</ele>
        <time>2019-06-11T14:14:46Z</time>
      </trkpt>
      <trkpt lat="45.82589" lon="3.03763">
        <ele>642</ele>
        <time>2019-06-11T14:14:52Z</time>
      </trkpt>
      <trkpt lat="45.82559" lon="3.03768">
        <ele>642.2</ele>
        <time>2019-06-11T14:14:58Z</time>
      </trkpt>
      <trkpt lat="45.82542" lon="3.03752">
        <ele>642.9</ele>
        <time>2019-06-11T14:15:03Z</time>
      </trkpt>
      <trkpt lat="45.82473" lon="3.03679">
        <ele>650.1</ele>
        <time>2019-06-11T14:15:22Z</time>
      </trkpt>
      <trkpt lat="45.82413" lon="3.03637">
        <ele>658.3</ele>
        <time>2019-06-11T14:15:37Z</time>
      </trkpt>
      <trkpt lat="45.82374" lon="3.0363">
        <ele>660.4</ele>
        <time>2019-06-11T14:15:46Z</time>
      </trkpt>
      <trkpt lat="45.82341" lon="3.03651">
        <ele>659.6</ele>
        <time>2019-06-11T14:15:54Z</time>
      </trkpt>
      <trkpt lat="45.82301" lon="3.03666">
        <ele>657.3</ele>
        <time>2019-06-11T14:16:03Z</time>
      </trkpt>
      <trkpt lat="45.82286" lon="3.03659">
        <ele>655.2</ele>
        <time>2019-06-11T14:16:07Z</time>
      </trkpt>
      <trkpt lat="45.82272" lon="3.03657">
        <ele>655.1</ele>
        <time>2019-06-11T14:16:10Z</time>
      </trkpt>
      <trkpt lat="45.82253" lon="3.03646">
        <ele>658.1</ele>
        <time>2019-06-11T14:16:16Z</time>
      </trkpt>
      <trkpt lat="45.82232" lon="3.0364">
        <ele>660.2</ele>
        <time>2019-06-11T14:16:22Z</time>
      </trkpt>
      <trkpt lat="45.82224" lon="3.03664">
        <ele>658.2</ele>
        <time>2019-06-11T14:16:27Z</time>
      </trkpt>
      <trkpt lat="45.82215" lon="3.03685">
        <ele>655.9</ele>
        <time>2019-06-11T14:16:31Z</time>
      </trkpt>
      <trkpt lat="45.82184" lon="3.03675">
        <ele>654.5</ele>
        <time>2019-06-11T14:16:39Z</time>
      </trkpt>
      <trkpt lat="45.82163" lon="3.03686">
        <ele>654.5</ele>
        <time>2019-06-11T14:16:45Z</time>
      </trkpt>
      <trkpt lat="45.82155" lon="3.03696">
        <ele>654.8</ele>
        <time>2019-06-11T14:16:48Z</time>
      </trkpt>
      <trkpt lat="45.82142" lon="3.03703">
        <ele>655.5</ele>
        <time>2019-06-11T14:16:51Z</time>
      </trkpt>
      <trkpt lat="45.82146" lon="3.03725">
        <ele>654.5</ele>
        <time>2019-06-11T14:16:55Z</time>
      </trkpt>
      <trkpt lat="45.82156" lon="3.03749">
        <ele>653.8</ele>
        <time>2019-06-11T14:17:00Z</time>
      </trkpt>
      <trkpt lat="45.82157" lon="3.03765">
        <ele>653.7</ele>
        <time>2019-06-11T14:17:03Z</time>
      </trkpt>
      <trkpt lat="45.82169" lon="3.03811">
        <ele>651.8</ele>
        <time>2019-06-11T14:17:11Z</time>
      </trkpt>
      <trkpt lat="45.82171" lon="3.03827">
        <ele>651.2</ele>
        <time>2019-06-11T14:17:14Z</time>
      </trkpt>
      <trkpt lat="45.82165" lon="3.03835">
        <ele>650.7</ele>
        <time>2019-06-11T14:17:16Z</time>
      </trkpt>
      <trkpt lat="45.82144" lon="3.03841">
        <ele>650.8</ele>
        <time>2019-06-11T14:17:22Z</time>
      </trkpt>
      <trkpt lat="45.82135" lon="3.03845">
        <ele>651.3</ele>
        <time>2019-06-11T14:17:24Z</time>
      </trkpt>
      <trkpt lat="45.8213" lon="3.03865">
        <ele>652.8</ele>
        <time>2019-06-11T14:17:28Z</time>
      </trkpt>
      <trkpt lat="45.82128" lon="3.03869">
        <ele>653.9</ele>
        <time>2019-06-11T14:17:29Z</time>
      </trkpt>
      <trkpt lat="45.82182" lon="3.03916">
        <ele>653.9</ele>
        <time>2019-06-11T14:17:45Z</time>
      </trkpt>
      <trkpt lat="45.82189" lon="3.03924">
        <ele>654.3</ele>
        <time>2019-06-11T14:17:47Z</time>
      </trkpt>
      <trkpt lat="45.82198" lon="3.03945">
        <ele>654.3</ele>
        <time>2019-06-11T14:17:51Z</time>
      </trkpt>
      <trkpt lat="45.82201" lon="3.03952">
        <ele>653.9</ele>
        <time>2019-06-11T14:17:52Z</time>
      </trkpt>
      <trkpt lat="45.82205" lon="3.0398">
        <ele>655</ele>
        <time>2019-06-11T14:17:57Z</time>
      </trkpt>
      <trkpt lat="45.82202" lon="3.04048">
        <ele>652.1</ele>
        <time>2019-06-11T14:18:07Z</time>
      </trkpt>
      <trkpt lat="45.82203" lon="3.04123">
        <ele>648.6</ele>
        <time>2019-06-11T14:18:19Z</time>
      </trkpt>
      <trkpt lat="45.82198" lon="3.04167">
        <ele>647.2</ele>
        <time>2019-06-11T14:18:26Z</time>
      </trkpt>
      <trkpt lat="45.82194" lon="3.04187">
        <ele>646</ele>
        <time>2019-06-11T14:18:29Z</time>
      </trkpt>
      <trkpt lat="45.82171" lon="3.04242">
        <ele>646.2</ele>
        <time>2019-06-11T14:18:40Z</time>
      </trkpt>
      <trkpt lat="45.82155" lon="3.04293">
        <ele>646.1</ele>
        <time>2019-06-11T14:18:49Z</time>
      </trkpt>
      <trkpt lat="45.82146" lon="3.04314">
        <ele>646.9</ele>
        <time>2019-06-11T14:18:53Z</time>
      </trkpt>
      <trkpt lat="45.82126" lon="3.04337">
        <ele>647.5</ele>
        <time>2019-06-11T14:19:00Z</time>
      </trkpt>
      <trkpt lat="45.82135" lon="3.04352">
        <ele>645.6</ele>
        <time>2019-06-11T14:19:03Z</time>
      </trkpt>
      <trkpt lat="45.82175" lon="3.044">
        <ele>640.8</ele>
        <time>2019-06-11T14:19:15Z</time>
      </trkpt>
      <trkpt lat="45.82194" lon="3.04428">
        <ele>642</ele>
        <time>2019-06-11T14:19:21Z</time>
      </trkpt>
      <trkpt lat="45.82194" lon="3.04428">
        <ele>642</ele>
        <time>2019-06-11T14:19:21Z</time>
      </trkpt>
      <trkpt lat="45.82175" lon="3.044">
        <ele>640.8</ele>
        <time>2019-06-11T14:19:27Z</time>
      </trkpt>
      <trkpt lat="45.82135" lon="3.04352">
        <ele>645.6</ele>
        <time>2019-06-11T14:19:38Z</time>
      </trkpt>
      <trkpt lat="45.82126" lon="3.04337">
        <ele>647.5</ele>
        <time>2019-06-11T14:19:41Z</time>
      </trkpt>
      <trkpt lat="45.82146" lon="3.04314">
        <ele>646.9</ele>
        <time>2019-06-11T14:19:47Z</time>
      </trkpt>
      <trkpt lat="45.82155" lon="3.04293">
        <ele>646.1</ele>
        <time>2019-06-11T14:19:51Z</time>
      </trkpt>
      <trkpt lat="45.82171" lon="3.04242">
        <ele>646.2</ele>
        <time>2019-06-11T14:20:00Z</time>
      </trkpt>
      <trkpt lat="45.82194" lon="3.04187">
        <ele>646</ele>
        <time>2019-06-11T14:20:11Z</time>
      </trkpt>
      <trkpt lat="45.82198" lon="3.04167">
        <ele>647.2</ele>
        <time>2019-06-11T14:20:14Z</time>
      </trkpt>
      <trkpt lat="45.82203" lon="3.04123">
        <ele>648.6</ele>
        <time>2019-06-11T14:20:21Z</time>
      </trkpt>
      <trkpt lat="45.82202" lon="3.04048">
        <ele>652.1</ele>
        <time>2019-06-11T14:20:33Z</time>
      </trkpt>
      <trkpt lat="45.82205" lon="3.0398">
        <ele>655</ele>
        <time>2019-06-11T14:20:43Z</time>
      </trkpt>
      <trkpt lat="45.82201" lon="3.03952">
        <ele>653.9</ele>
        <time>2019-06-11T14:20:48Z</time>
      </trkpt>
      <trkpt lat="45.82198" lon="3.03945">
        <ele>654.3</ele>
        <time>2019-06-11T14:20:50Z</time>
      </trkpt>
      <trkpt lat="45.82189" lon="3.03924">
        <ele>654.3</ele>
        <time>2019-06-11T14:20:54Z</time>
      </trkpt>
      <trkpt lat="45.82182" lon="3.03916">
        <ele>653.9</ele>
        <time>2019-06-11T14:20:57Z</time>
      </trkpt>
      <trkpt lat="45.82128" lon="3.03869">
        <ele>653.9</ele>
        <time>2019-06-11T14:21:13Z</time>
      </trkpt>
      <trkpt lat="45.8213" lon="3.03865">
        <ele>652.8</ele>
        <time>2019-06-11T14:21:14Z</time>
      </trkpt>
      <trkpt lat="45.82135" lon="3.03845">
        <ele>651.3</ele>
        <time>2019-06-11T14:21:17Z</time>
      </trkpt>
      <trkpt lat="45.82144" lon="3.03841">
        <ele>650.8</ele>
        <time>2019-06-11T14:21:20Z</time>
      </trkpt>
      <trkpt lat="45.82165" lon="3.03835">
        <ele>650.7</ele>
        <time>2019-06-11T14:21:25Z</time>
      </trkpt>
      <trkpt lat="45.82171" lon="3.03827">
        <ele>651.2</ele>
        <time>2019-06-11T14:21:27Z</time>
      </trkpt>
      <trkpt lat="45.82169" lon="3.03811">
        <ele>651.8</ele>
        <time>2019-06-11T14:21:30Z</time>
      </trkpt>
      <trkpt lat="45.82157" lon="3.03765">
        <ele>653.7</ele>
        <time>2019-06-11T14:21:39Z</time>
      </trkpt>
      <trkpt lat="45.82156" lon="3.03749">
        <ele>653.8</ele>
        <time>2019-06-11T14:21:41Z</time>
      </trkpt>
      <trkpt lat="45.82146" lon="3.03725">
        <ele>654.5</ele>
        <time>2019-06-11T14:21:46Z</time>
      </trkpt>
      <trkpt lat="45.82142" lon="3.03703">
        <ele>655.5</ele>
        <time>2019-06-11T14:21:50Z</time>
      </trkpt>
      <trkpt lat="45.82155" lon="3.03696">
        <ele>654.8</ele>
        <time>2019-06-11T14:21:54Z</time>
      </trkpt>
      <trkpt lat="45.82163" lon="3.03686">
        <ele>654.5</ele>
        <time>2019-06-11T14:21:57Z</time>
      </trkpt>
      <trkpt lat="45.82184" lon="3.03675">
        <ele>654.5</ele>
        <time>2019-06-11T14:22:02Z</time>
      </trkpt>
      <trkpt lat="45.82215" lon="3.03685">
        <ele>655.9</ele>
        <time>2019-06-11T14:22:10Z</time>
      </trkpt>
      <trkpt lat="45.82224" lon="3.03664">
        <ele>658.2</ele>
        <time>2019-06-11T14:22:14Z</time>
      </trkpt>
      <trkpt lat="45.82232" lon="3.0364">
        <ele>660.2</ele>
        <time>2019-06-11T14:22:19Z</time>
      </trkpt>
      <trkpt lat="45.82253" lon="3.03646">
        <ele>658.1</ele>
        <time>2019-06-11T14:22:25Z</time>
      </trkpt>
      <trkpt lat="45.82272" lon="3.03657">
        <ele>655.1</ele>
        <time>2019-06-11T14:22:31Z</time>
      </trkpt>
      <trkpt lat="45.82286" lon="3.03659">
        <ele>655.2</ele>
        <time>2019-06-11T14:22:35Z</time>
      </trkpt>
      <trkpt lat="45.82301" lon="3.03666">
        <ele>657.3</ele>
        <time>2019-06-11T14:22:39Z</time>
      </trkpt>
      <trkpt lat="45.82341" lon="3.03651">
        <ele>659.6</ele>
        <time>2019-06-11T14:22:48Z</time>
      </trkpt>
      <trkpt lat="45.82374" lon="3.0363">
        <ele>660.4</ele>
        <time>2019-06-11T14:22:56Z</time>
      </trkpt>
      <trkpt lat="45.82413" lon="3.03637">
        <ele>658.3</ele>
        <time>2019-06-11T14:23:04Z</time>
      </trkpt>
      <trkpt lat="45.82473" lon="3.03679">
        <ele>650.1</ele>
        <time>2019-06-11T14:23:19Z</time>
      </trkpt>
      <trkpt lat="45.82542" lon="3.03752">
        <ele>642.9</ele>
        <time>2019-06-11T14:23:39Z</time>
      </trkpt>
      <trkpt lat="45.82559" lon="3.03768">
        <ele>642.2</ele>
        <time>2019-06-11T14:23:43Z</time>
      </trkpt>
      <trkpt lat="45.82589" lon="3.03763">
        <ele>642</ele>
        <time>2019-06-11T14:23:50Z</time>
      </trkpt>
      <trkpt lat="45.8261" lon="3.03778">
        <ele>637.2</ele>
        <time>2019-06-11T14:23:55Z</time>
      </trkpt>
      <trkpt lat="45.82635" lon="3.03862">
        <ele>630.9</ele>
        <time>2019-06-11T14:24:09Z</time>
      </trkpt>
      <trkpt lat="45.82642" lon="3.03889">
        <ele>629.5</ele>
        <time>2019-06-11T14:24:14Z</time>
      </trkpt>
      <trkpt lat="45.82678" lon="3.03904">
        <ele>625</ele>
        <time>2019-06-11T14:24:22Z</time>
      </trkpt>
      <trkpt lat="45.82703" lon="3.03926">
        <ele>621</ele>
        <time>2019-06-11T14:24:29Z</time>
      </trkpt>
      <trkpt lat="45.8275" lon="3.03989">
        <ele>613.8</ele>
        <time>2019-06-11T14:24:43Z</time>
      </trkpt>
      <trkpt lat="45.8282" lon="3.04068">
        <ele>602</ele>
        <time>2019-06-11T14:25:03Z</time>
      </trkpt>
      <trkpt lat="45.82881" lon="3.04131">
        <ele>591.7</ele>
        <time>2019-06-11T14:25:20Z</time>
      </trkpt>
      <trkpt lat="45.82961" lon="3.04203">
        <ele>572</ele>
        <time>2019-06-11T14:25:42Z</time>
      </trkpt>
      <trkpt lat="45.82975" lon="3.04242">
        <ele>571.8</ele>
        <time>2019-06-11T14:25:49Z</time>
      </trkpt>
      <trkpt lat="45.82988" lon="3.04297">
        <ele>567.5</ele>
        <time>2019-06-11T14:25:58Z</time>
      </trkpt>
      <trkpt lat="45.83003" lon="3.0433">
        <ele>559.9</ele>
        <time>2019-06-11T14:26:04Z</time>
      </trkpt>
      <trkpt lat="45.83" lon="3.04375">
        <ele>560.5</ele>
        <time>2019-06-11T14:26:11Z</time>
      </trkpt>
      <trkpt lat="45.83001" lon="3.04408">
        <ele>558.9</ele>
        <time>2019-06-11T14:26:16Z</time>
      </trkpt>
      <trkpt lat="45.83019" lon="3.04454">
        <ele>551.7</ele>
        <time>2019-06-11T14:26:27Z</time>
      </trkpt>
      <trkpt lat="45.82999" lon="3.04489">
        <ele>554.5</ele>
        <time>2019-06-11T14:26:37Z</time>
      </trkpt>
      <trkpt lat="45.82968" lon="3.04518">
        <ele>551</ele>
        <time>2019-06-11T14:26:46Z</time>
      </trkpt>
      <trkpt lat="45.82929" lon="3.04545">
        <ele>543.2</ele>
        <time>2019-06-11T14:26:56Z</time>
      </trkpt>
      <trkpt lat="45.82887" lon="3.04578">
        <ele>535.7</ele>
        <time>2019-06-11T14:27:06Z</time>
      </trkpt>
      <trkpt lat="45.82852" lon="3.04582">
        <ele>530.8</ele>
        <time>2019-06-11T14:27:16Z</time>
      </trkpt>
      <trkpt lat="45.82834" lon="3.04548">
        <ele>529.8</ele>
        <time>2019-06-11T14:27:24Z</time>
      </trkpt>
      <trkpt lat="45.8283" lon="3.04595">
        <ele>520.8</ele>
        <time>2019-06-11T14:27:33Z</time>
      </trkpt>
      <trkpt lat="45.82842" lon="3.04631">
        <ele>512.9</ele>
        <time>2019-06-11T14:27:39Z</time>
      </trkpt>
      <trkpt lat="45.82874" lon="3.04639">
        <ele>508.5</ele>
        <time>2019-06-11T14:27:46Z</time>
      </trkpt>
      <trkpt lat="45.82907" lon="3.04636">
        <ele>506.4</ele>
        <time>2019-06-11T14:27:54Z</time>
      </trkpt>
      <trkpt lat="45.82952" lon="3.04622">
        <ele>510.1</ele>
        <time>2019-06-11T14:28:04Z</time>
      </trkpt>
      <trkpt lat="45.83001" lon="3.04603">
        <ele>513.9</ele>
        <time>2019-06-11T14:28:15Z</time>
      </trkpt>
      <trkpt lat="45.83029" lon="3.04585">
        <ele>515.1</ele>
        <time>2019-06-11T14:28:23Z</time>
      </trkpt>
      <trkpt lat="45.83072" lon="3.04527">
        <ele>517.5</ele>
        <time>2019-06-11T14:28:37Z</time>
      </trkpt>
      <trkpt lat="45.83087" lon="3.04467">
        <ele>514.6</ele>
        <time>2019-06-11T14:28:47Z</time>
      </trkpt>
      <trkpt lat="45.83099" lon="3.04447">
        <ele>513.7</ele>
        <time>2019-06-11T14:28:52Z</time>
      </trkpt>
      <trkpt lat="45.83095" lon="3.04466">
        <ele>512.7</ele>
        <time>2019-06-11T14:28:55Z</time>
      </trkpt>
      <trkpt lat="45.83094" lon="3.04514">
        <ele>508.4</ele>
        <time>2019-06-11T14:29:03Z</time>
      </trkpt>
      <trkpt lat="45.83092" lon="3.04531">
        <ele>507.4</ele>
        <time>2019-06-11T14:29:06Z</time>
      </trkpt>
      <trkpt lat="45.83084" lon="3.04551">
        <ele>508.3</ele>
        <time>2019-06-11T14:29:09Z</time>
      </trkpt>
      <trkpt lat="45.83073" lon="3.04568">
        <ele>507.3</ele>
        <time>2019-06-11T14:29:13Z</time>
      </trkpt>
      <trkpt lat="45.83038" lon="3.04605">
        <ele>505.5</ele>
        <time>2019-06-11T14:29:23Z</time>
      </trkpt>
      <trkpt lat="45.83014" lon="3.04624">
        <ele>504.7</ele>
        <time>2019-06-11T14:29:30Z</time>
      </trkpt>
      <trkpt lat="45.8299" lon="3.04635">
        <ele>504.4</ele>
        <time>2019-06-11T14:29:36Z</time>
      </trkpt>
      <trkpt lat="45.82866" lon="3.04677">
        <ele>498.4</ele>
        <time>2019-06-11T14:30:05Z</time>
      </trkpt>
      <trkpt lat="45.82837" lon="3.04682">
        <ele>497.4</ele>
        <time>2019-06-11T14:30:15Z</time>
      </trkpt>
      <trkpt lat="45.82861" lon="3.04688">
        <ele>497</ele>
        <time>2019-06-11T14:30:21Z</time>
      </trkpt>
      <trkpt lat="45.82905" lon="3.04709">
        <ele>491.8</ele>
        <time>2019-06-11T14:30:32Z</time>
      </trkpt>
      <trkpt lat="45.82947" lon="3.04711">
        <ele>489</ele>
        <time>2019-06-11T14:30:42Z</time>
      </trkpt>
      <trkpt lat="45.82969" lon="3.04716">
        <ele>487.8</ele>
        <time>2019-06-11T14:30:48Z</time>
      </trkpt>
      <trkpt lat="45.82988" lon="3.04726">
        <ele>485.8</ele>
        <time>2019-06-11T14:30:53Z</time>
      </trkpt>
      <trkpt lat="45.82995" lon="3.04734">
        <ele>484.6</ele>
        <time>2019-06-11T14:30:55Z</time>
      </trkpt>
      <trkpt lat="45.83007" lon="3.04753">
        <ele>482.3</ele>
        <time>2019-06-11T14:31:01Z</time>
      </trkpt>
      <trkpt lat="45.83015" lon="3.04784">
        <ele>479.6</ele>
        <time>2019-06-11T14:31:08Z</time>
      </trkpt>
      <trkpt lat="45.83006" lon="3.04774">
        <ele>480.3</ele>
        <time>2019-06-11T14:31:10Z</time>
      </trkpt>
      <trkpt lat="45.82997" lon="3.04775">
        <ele>480.2</ele>
        <time>2019-06-11T14:31:13Z</time>
      </trkpt>
      <trkpt lat="45.82936" lon="3.04801">
        <ele>477.5</ele>
        <time>2019-06-11T14:31:28Z</time>
      </trkpt>
      <trkpt lat="45.82926" lon="3.04808">
        <ele>477.6</ele>
        <time>2019-06-11T14:31:31Z</time>
      </trkpt>
      <trkpt lat="45.82845" lon="3.04877">
        <ele>475.9</ele>
        <time>2019-06-11T14:31:55Z</time>
      </trkpt>
      <trkpt lat="45.82797" lon="3.04905">
        <ele>473</ele>
        <time>2019-06-11T14:32:08Z</time>
      </trkpt>
      <trkpt lat="45.82778" lon="3.04909">
        <ele>471.5</ele>
        <time>2019-06-11T14:32:13Z</time>
      </trkpt>
      <trkpt lat="45.82766" lon="3.04917">
        <ele>469.7</ele>
        <time>2019-06-11T14:32:17Z</time>
      </trkpt>
      <trkpt lat="45.82729" lon="3.05023">
        <ele>459.2</ele>
        <time>2019-06-11T14:32:38Z</time>
      </trkpt>
      <trkpt lat="45.82717" lon="3.05051">
        <ele>454</ele>
        <time>2019-06-11T14:32:44Z</time>
      </trkpt>
      <trkpt lat="45.82715" lon="3.05058">
        <ele>453.3</ele>
        <time>2019-06-11T14:32:45Z</time>
      </trkpt>
      <trkpt lat="45.82698" lon="3.05001">
        <ele>454.7</ele>
        <time>2019-06-11T14:32:55Z</time>
      </trkpt>
      <trkpt lat="45.82694" lon="3.04994">
        <ele>454</ele>
        <time>2019-06-11T14:32:57Z</time>
      </trkpt>
      <trkpt lat="45.82648" lon="3.04966">
        <ele>456.7</ele>
        <time>2019-06-11T14:33:08Z</time>
      </trkpt>
      <trkpt lat="45.82638" lon="3.0498">
        <ele>455.7</ele>
        <time>2019-06-11T14:33:11Z</time>
      </trkpt>
      <trkpt lat="45.82625" lon="3.04988">
        <ele>455.1</ele>
        <time>2019-06-11T14:33:14Z</time>
      </trkpt>
      <trkpt lat="45.82588" lon="3.05005">
        <ele>453.6</ele>
        <time>2019-06-11T14:33:23Z</time>
      </trkpt>
      <trkpt lat="45.82529" lon="3.05041">
        <ele>453</ele>
        <time>2019-06-11T14:33:37Z</time>
      </trkpt>
      <trkpt lat="45.82521" lon="3.05048">
        <ele>453.1</ele>
        <time>2019-06-11T14:33:40Z</time>
      </trkpt>
      <trkpt lat="45.82441" lon="3.0513">
        <ele>449.8</ele>
        <time>2019-06-11T14:34:01Z</time>
      </trkpt>
      <trkpt lat="45.82424" lon="3.05152">
        <ele>448.7</ele>
        <time>2019-06-11T14:34:07Z</time>
      </trkpt>
      <trkpt lat="45.82377" lon="3.0524">
        <ele>446</ele>
        <time>2019-06-11T14:34:24Z</time>
      </trkpt>
      <trkpt lat="45.82357" lon="3.05263">
        <ele>445.1</ele>
        <time>2019-06-11T14:34:30Z</time>
      </trkpt>
      <trkpt lat="45.82332" lon="3.05281">
        <ele>444.7</ele>
        <time>2019-06-11T14:34:36Z</time>
      </trkpt>
      <trkpt lat="45.82316" lon="3.05287">
        <ele>443.9</ele>
        <time>2019-06-11T14:34:40Z</time>
      </trkpt>
      <trkpt lat="45.82273" lon="3.05291">
        <ele>440.6</ele>
        <time>2019-06-11T14:34:49Z</time>
      </trkpt>
      <trkpt lat="45.82263" lon="3.0529">
        <ele>439.9</ele>
        <time>2019-06-11T14:34:51Z</time>
      </trkpt>
      <trkpt lat="45.82228" lon="3.05276">
        <ele>439.4</ele>
        <time>2019-06-11T14:35:00Z</time>
      </trkpt>
      <trkpt lat="45.8221" lon="3.05274">
        <ele>438.7</ele>
        <time>2019-06-11T14:35:04Z</time>
      </trkpt>
      <trkpt lat="45.82118" lon="3.05298">
        <ele>438</ele>
        <time>2019-06-11T14:35:24Z</time>
      </trkpt>
      <trkpt lat="45.82096" lon="3.05311">
        <ele>437.7</ele>
        <time>2019-06-11T14:35:30Z</time>
      </trkpt>
      <trkpt lat="45.82037" lon="3.05353">
        <ele>436.7</ele>
        <time>2019-06-11T14:35:44Z</time>
      </trkpt>
      <trkpt lat="45.81916" lon="3.05405">
        <ele>427.9</ele>
        <time>2019-06-11T14:36:12Z</time>
      </trkpt>
      <trkpt lat="45.81841" lon="3.05453">
        <ele>428.1</ele>
        <time>2019-06-11T14:36:31Z</time>
      </trkpt>
      <trkpt lat="45.81794" lon="3.05466">
        <ele>428.8</ele>
        <time>2019-06-11T14:36:44Z</time>
      </trkpt>
      <trkpt lat="45.81806" lon="3.05399">
        <ele>431.6</ele>
        <time>2019-06-11T14:36:54Z</time>
      </trkpt>
      <trkpt lat="45.81806" lon="3.05387">
        <ele>432.1</ele>
        <time>2019-06-11T14:36:56Z</time>
      </trkpt>
      <trkpt lat="45.81794" lon="3.053">
        <ele>436.7</ele>
        <time>2019-06-11T14:37:10Z</time>
      </trkpt>
      <trkpt lat="45.81791" lon="3.05224">
        <ele>441</ele>
        <time>2019-06-11T14:37:22Z</time>
      </trkpt>
      <trkpt lat="45.81792" lon="3.0521">
        <ele>441.9</ele>
        <time>2019-06-11T14:37:24Z</time>
      </trkpt>
      <trkpt lat="45.81808" lon="3.05197">
        <ele>442.6</ele>
        <time>2019-06-11T14:37:28Z</time>
      </trkpt>
      <trkpt lat="45.8181" lon="3.0519">
        <ele>443</ele>
        <time>2019-06-11T14:37:29Z</time>
      </trkpt>
      <trkpt lat="45.81811" lon="3.05158">
        <ele>445.3</ele>
        <time>2019-06-11T14:37:35Z</time>
      </trkpt>
      <trkpt lat="45.81808" lon="3.05126">
        <ele>447.9</ele>
        <time>2019-06-11T14:37:40Z</time>
      </trkpt>
      <trkpt lat="45.81811" lon="3.05116">
        <ele>448.6</ele>
        <time>2019-06-11T14:37:41Z</time>
      </trkpt>
      <trkpt lat="45.81824" lon="3.0511">
        <ele>449.1</ele>
        <time>2019-06-11T14:37:44Z</time>
      </trkpt>
      <trkpt lat="45.81828" lon="3.05104">
        <ele>449.7</ele>
        <time>2019-06-11T14:37:46Z</time>
      </trkpt>
      <trkpt lat="45.8183" lon="3.0507">
        <ele>452.9</ele>
        <time>2019-06-11T14:37:51Z</time>
      </trkpt>
      <trkpt lat="45.81824" lon="3.04946">
        <ele>465.5</ele>
        <time>2019-06-11T14:38:11Z</time>
      </trkpt>
      <trkpt lat="45.81814" lon="3.04918">
        <ele>469.2</ele>
        <time>2019-06-11T14:38:17Z</time>
      </trkpt>
      <trkpt lat="45.81771" lon="3.04936">
        <ele>466.4</ele>
        <time>2019-06-11T14:38:27Z</time>
      </trkpt>
      <trkpt lat="45.81759" lon="3.04962">
        <ele>464</ele>
        <time>2019-06-11T14:38:32Z</time>
      </trkpt>
      <trkpt lat="45.81746" lon="3.05003">
        <ele>461.1</ele>
        <time>2019-06-11T14:38:39Z</time>
      </trkpt>
      <trkpt lat="45.81739" lon="3.05017">
        <ele>460.5</ele>
        <time>2019-06-11T14:38:42Z</time>
      </trkpt>
      <trkpt lat="45.81717" lon="3.04931">
        <ele>470.6</ele>
        <time>2019-06-11T14:38:56Z</time>
      </trkpt>
      <trkpt lat="45.81704" lon="3.04892">
        <ele>477.7</ele>
        <time>2019-06-11T14:39:05Z</time>
      </trkpt>
      <trkpt lat="45.81737" lon="3.04863">
        <ele>477.7</ele>
        <time>2019-06-11T14:39:14Z</time>
      </trkpt>
      <trkpt lat="45.81758" lon="3.04858">
        <ele>477.8</ele>
        <time>2019-06-11T14:39:18Z</time>
      </trkpt>
      <trkpt lat="45.81845" lon="3.04875">
        <ele>479.3</ele>
        <time>2019-06-11T14:39:38Z</time>
      </trkpt>
      <trkpt lat="45.81859" lon="3.04881">
        <ele>479.5</ele>
        <time>2019-06-11T14:39:43Z</time>
      </trkpt>
      <trkpt lat="45.81871" lon="3.04891">
        <ele>479.4</ele>
        <time>2019-06-11T14:39:46Z</time>
      </trkpt>
      <trkpt lat="45.81879" lon="3.04901">
        <ele>479.2</ele>
        <time>2019-06-11T14:39:48Z</time>
      </trkpt>
      <trkpt lat="45.81898" lon="3.04936">
        <ele>478.6</ele>
        <time>2019-06-11T14:39:56Z</time>
      </trkpt>
      <trkpt lat="45.81909" lon="3.04946">
        <ele>478.3</ele>
        <time>2019-06-11T14:39:59Z</time>
      </trkpt>
      <trkpt lat="45.81918" lon="3.04949">
        <ele>478.5</ele>
        <time>2019-06-11T14:40:01Z</time>
      </trkpt>
      <trkpt lat="45.81967" lon="3.04948">
        <ele>478.2</ele>
        <time>2019-06-11T14:40:12Z</time>
      </trkpt>
      <trkpt lat="45.82059" lon="3.04963">
        <ele>480.4</ele>
        <time>2019-06-11T14:40:33Z</time>
      </trkpt>
      <trkpt lat="45.82081" lon="3.04964">
        <ele>480.4</ele>
        <time>2019-06-11T14:40:41Z</time>
      </trkpt>
      <trkpt lat="45.82081" lon="3.04964">
        <ele>480.4</ele>
        <time>2019-06-11T14:40:41Z</time>
      </trkpt>
      <trkpt lat="45.82134" lon="3.04961">
        <ele>481.6</ele>
        <time>2019-06-11T14:40:53Z</time>
      </trkpt>
      <trkpt lat="45.82213" lon="3.04945">
        <ele>481</ele>
        <time>2019-06-11T14:41:10Z</time>
      </trkpt>
      <trkpt lat="45.82216" lon="3.04967">
        <ele>479.6</ele>
        <time>2019-06-11T14:41:14Z</time>
      </trkpt>
      <trkpt lat="45.8222" lon="3.04973">
        <ele>479.5</ele>
        <time>2019-06-11T14:41:15Z</time>
      </trkpt>
      <trkpt lat="45.82227" lon="3.04978">
        <ele>478.7</ele>
        <time>2019-06-11T14:41:17Z</time>
      </trkpt>
      <trkpt lat="45.82294" lon="3.04985">
        <ele>477.7</ele>
        <time>2019-06-11T14:41:32Z</time>
      </trkpt>
      <trkpt lat="45.82317" lon="3.04981">
        <ele>476.4</ele>
        <time>2019-06-11T14:41:37Z</time>
      </trkpt>
      <trkpt lat="45.82362" lon="3.04955">
        <ele>473.4</ele>
        <time>2019-06-11T14:41:48Z</time>
      </trkpt>
      <trkpt lat="45.82439" lon="3.04956">
        <ele>467.6</ele>
        <time>2019-06-11T14:42:08Z</time>
      </trkpt>
      <trkpt lat="45.82456" lon="3.04962">
        <ele>465.7</ele>
        <time>2019-06-11T14:42:12Z</time>
      </trkpt>
      <trkpt lat="45.82503" lon="3.04989">
        <ele>459.9</ele>
        <time>2019-06-11T14:42:25Z</time>
      </trkpt>
      <trkpt lat="45.82511" lon="3.04996">
        <ele>458.4</ele>
        <time>2019-06-11T14:42:27Z</time>
      </trkpt>
      <trkpt lat="45.82515" lon="3.05006">
        <ele>456.9</ele>
        <time>2019-06-11T14:42:31Z</time>
      </trkpt>
      <trkpt lat="45.82521" lon="3.05048">
        <ele>453.1</ele>
        <time>2019-06-11T14:42:39Z</time>
      </trkpt>
      <trkpt lat="45.82506" lon="3.05063">
        <ele>452.8</ele>
        <time>2019-06-11T14:42:43Z</time>
      </trkpt>
      <trkpt lat="45.8253" lon="3.05153">
        <ele>443.3</ele>
        <time>2019-06-11T14:43:00Z</time>
      </trkpt>
      <trkpt lat="45.82536" lon="3.05179">
        <ele>440.6</ele>
        <time>2019-06-11T14:43:05Z</time>
      </trkpt>
      <trkpt lat="45.82551" lon="3.0523">
        <ele>438.3</ele>
        <time>2019-06-11T14:43:15Z</time>
      </trkpt>
      <trkpt lat="45.82551" lon="3.05248">
        <ele>437.1</ele>
        <time>2019-06-11T14:43:18Z</time>
      </trkpt>
      <trkpt lat="45.82546" lon="3.05284">
        <ele>435.1</ele>
        <time>2019-06-11T14:43:25Z</time>
      </trkpt>
      <trkpt lat="45.82547" lon="3.05296">
        <ele>434.7</ele>
        <time>2019-06-11T14:43:27Z</time>
      </trkpt>
      <trkpt lat="45.82554" lon="3.05315">
        <ele>433.7</ele>
        <time>2019-06-11T14:43:31Z</time>
      </trkpt>
      <trkpt lat="45.82561" lon="3.0533">
        <ele>433.5</ele>
        <time>2019-06-11T14:43:34Z</time>
      </trkpt>
      <trkpt lat="45.82587" lon="3.05357">
        <ele>435.7</ele>
        <time>2019-06-11T14:43:42Z</time>
      </trkpt>
      <trkpt lat="45.82586" lon="3.05366">
        <ele>435.8</ele>
        <time>2019-06-11T14:43:44Z</time>
      </trkpt>
      <trkpt lat="45.82589" lon="3.05399">
        <ele>437.4</ele>
        <time>2019-06-11T14:43:50Z</time>
      </trkpt>
      <trkpt lat="45.82595" lon="3.05447">
        <ele>439.7</ele>
        <time>2019-06-11T14:43:58Z</time>
      </trkpt>
      <trkpt lat="45.82594" lon="3.05461">
        <ele>439.6</ele>
        <time>2019-06-11T14:44:01Z</time>
      </trkpt>
      <trkpt lat="45.82604" lon="3.05479">
        <ele>440.2</ele>
        <time>2019-06-11T14:44:06Z</time>
      </trkpt>
      <trkpt lat="45.82626" lon="3.05501">
        <ele>441.5</ele>
        <time>2019-06-11T14:44:12Z</time>
      </trkpt>
      <trkpt lat="45.82639" lon="3.05518">
        <ele>441.7</ele>
        <time>2019-06-11T14:44:15Z</time>
      </trkpt>
      <trkpt lat="45.82643" lon="3.05527">
        <ele>442</ele>
        <time>2019-06-11T14:44:17Z</time>
      </trkpt>
      <trkpt lat="45.82659" lon="3.05578">
        <ele>443.5</ele>
        <time>2019-06-11T14:44:26Z</time>
      </trkpt>
      <trkpt lat="45.82661" lon="3.05595">
        <ele>444.4</ele>
        <time>2019-06-11T14:44:28Z</time>
      </trkpt>
      <trkpt lat="45.82655" lon="3.05651">
        <ele>447.1</ele>
        <time>2019-06-11T14:44:37Z</time>
      </trkpt>
      <trkpt lat="45.82626" lon="3.05747">
        <ele>448.9</ele>
        <time>2019-06-11T14:44:54Z</time>
      </trkpt>
      <trkpt lat="45.82595" lon="3.05821">
        <ele>448.7</ele>
        <time>2019-06-11T14:45:07Z</time>
      </trkpt>
      <trkpt lat="45.8259" lon="3.05845">
        <ele>449.5</ele>
        <time>2019-06-11T14:45:11Z</time>
      </trkpt>
      <trkpt lat="45.82587" lon="3.05886">
        <ele>447.7</ele>
        <time>2019-06-11T14:45:17Z</time>
      </trkpt>
      <trkpt lat="45.82587" lon="3.05928">
        <ele>447.7</ele>
        <time>2019-06-11T14:45:25Z</time>
      </trkpt>
      <trkpt lat="45.82588" lon="3.05938">
        <ele>448.1</ele>
        <time>2019-06-11T14:45:27Z</time>
      </trkpt>
      <trkpt lat="45.82591" lon="3.05956">
        <ele>448.3</ele>
        <time>2019-06-11T14:45:30Z</time>
      </trkpt>
      <trkpt lat="45.82598" lon="3.05974">
        <ele>448.6</ele>
        <time>2019-06-11T14:45:33Z</time>
      </trkpt>
      <trkpt lat="45.82605" lon="3.05989">
        <ele>449.4</ele>
        <time>2019-06-11T14:45:36Z</time>
      </trkpt>
      <trkpt lat="45.82633" lon="3.06027">
        <ele>450.6</ele>
        <time>2019-06-11T14:45:44Z</time>
      </trkpt>
      <trkpt lat="45.82639" lon="3.06046">
        <ele>450.3</ele>
        <time>2019-06-11T14:45:47Z</time>
      </trkpt>
      <trkpt lat="45.82643" lon="3.06084">
        <ele>450.1</ele>
        <time>2019-06-11T14:45:53Z</time>
      </trkpt>
      <trkpt lat="45.82647" lon="3.06214">
        <ele>447.3</ele>
        <time>2019-06-11T14:46:14Z</time>
      </trkpt>
      <trkpt lat="45.82651" lon="3.06235">
        <ele>446.4</ele>
        <time>2019-06-11T14:46:17Z</time>
      </trkpt>
      <trkpt lat="45.82656" lon="3.06253">
        <ele>445.2</ele>
        <time>2019-06-11T14:46:20Z</time>
      </trkpt>
      <trkpt lat="45.82671" lon="3.0628">
        <ele>442.7</ele>
        <time>2019-06-11T14:46:25Z</time>
      </trkpt>
      <trkpt lat="45.82681" lon="3.06292">
        <ele>441.4</ele>
        <time>2019-06-11T14:46:28Z</time>
      </trkpt>
      <trkpt lat="45.82692" lon="3.06298">
        <ele>439.8</ele>
        <time>2019-06-11T14:46:31Z</time>
      </trkpt>
      <trkpt lat="45.82681" lon="3.06363">
        <ele>434.9</ele>
        <time>2019-06-11T14:46:42Z</time>
      </trkpt>
      <trkpt lat="45.82678" lon="3.06396">
        <ele>433.4</ele>
        <time>2019-06-11T14:46:47Z</time>
      </trkpt>
      <trkpt lat="45.82676" lon="3.06561">
        <ele>424.9</ele>
        <time>2019-06-11T14:47:13Z</time>
      </trkpt>
      <trkpt lat="45.82684" lon="3.06553">
        <ele>425</ele>
        <time>2019-06-11T14:47:16Z</time>
      </trkpt>
      <trkpt lat="45.8269" lon="3.06551">
        <ele>424.7</ele>
        <time>2019-06-11T14:47:17Z</time>
      </trkpt>
      <trkpt lat="45.82701" lon="3.06554">
        <ele>424.1</ele>
        <time>2019-06-11T14:47:20Z</time>
      </trkpt>
      <trkpt lat="45.82711" lon="3.06564">
        <ele>423.2</ele>
        <time>2019-06-11T14:47:23Z</time>
      </trkpt>
      <trkpt lat="45.82721" lon="3.0658">
        <ele>422.2</ele>
        <time>2019-06-11T14:47:26Z</time>
      </trkpt>
      <trkpt lat="45.82721" lon="3.06623">
        <ele>421.8</ele>
        <time>2019-06-11T14:47:33Z</time>
      </trkpt>
      <trkpt lat="45.82717" lon="3.06668">
        <ele>421.8</ele>
        <time>2019-06-11T14:47:40Z</time>
      </trkpt>
      <trkpt lat="45.8271" lon="3.06704">
        <ele>420.5</ele>
        <time>2019-06-11T14:47:45Z</time>
      </trkpt>
      <trkpt lat="45.8269" lon="3.06784">
        <ele>419.6</ele>
        <time>2019-06-11T14:47:59Z</time>
      </trkpt>
      <trkpt lat="45.82686" lon="3.06819">
        <ele>419.4</ele>
        <time>2019-06-11T14:48:04Z</time>
      </trkpt>
      <trkpt lat="45.82688" lon="3.06946">
        <ele>414.3</ele>
        <time>2019-06-11T14:48:24Z</time>
      </trkpt>
      <trkpt lat="45.82692" lon="3.0699">
        <ele>411.5</ele>
        <time>2019-06-11T14:48:31Z</time>
      </trkpt>
      <trkpt lat="45.82721" lon="3.07065">
        <ele>407.3</ele>
        <time>2019-06-11T14:48:44Z</time>
      </trkpt>
      <trkpt lat="45.82726" lon="3.0709">
        <ele>405.7</ele>
        <time>2019-06-11T14:48:48Z</time>
      </trkpt>
      <trkpt lat="45.82735" lon="3.07168">
        <ele>402</ele>
        <time>2019-06-11T14:49:00Z</time>
      </trkpt>
      <trkpt lat="45.82732" lon="3.07204">
        <ele>400.4</ele>
        <time>2019-06-11T14:49:06Z</time>
      </trkpt>
      <trkpt lat="45.82726" lon="3.07227">
        <ele>399</ele>
        <time>2019-06-11T14:49:10Z</time>
      </trkpt>
      <trkpt lat="45.82718" lon="3.07241">
        <ele>398.5</ele>
        <time>2019-06-11T14:49:13Z</time>
      </trkpt>
      <trkpt lat="45.8271" lon="3.07251">
        <ele>398.4</ele>
        <time>2019-06-11T14:49:16Z</time>
      </trkpt>
      <trkpt lat="45.82707" lon="3.07257">
        <ele>398.3</ele>
        <time>2019-06-11T14:49:17Z</time>
      </trkpt>
      <trkpt lat="45.82701" lon="3.07286">
        <ele>397.3</ele>
        <time>2019-06-11T14:49:22Z</time>
      </trkpt>
      <trkpt lat="45.82704" lon="3.07435">
        <ele>400</ele>
        <time>2019-06-11T14:49:45Z</time>
      </trkpt>
      <trkpt lat="45.82708" lon="3.07465">
        <ele>400.1</ele>
        <time>2019-06-11T14:49:50Z</time>
      </trkpt>
      <trkpt lat="45.82711" lon="3.07476">
        <ele>399.9</ele>
        <time>2019-06-11T14:49:51Z</time>
      </trkpt>
      <trkpt lat="45.82737" lon="3.07516">
        <ele>398.9</ele>
        <time>2019-06-11T14:50:00Z</time>
      </trkpt>
      <trkpt lat="45.82788" lon="3.07622">
        <ele>397.2</ele>
        <time>2019-06-11T14:50:20Z</time>
      </trkpt>
      <trkpt lat="45.82819" lon="3.07659">
        <ele>395.1</ele>
        <time>2019-06-11T14:50:29Z</time>
      </trkpt>
      <trkpt lat="45.82853" lon="3.07694">
        <ele>397.2</ele>
        <time>2019-06-11T14:50:38Z</time>
      </trkpt>
      <trkpt lat="45.82865" lon="3.07741">
        <ele>396.4</ele>
        <time>2019-06-11T14:50:46Z</time>
      </trkpt>
      <trkpt lat="45.82903" lon="3.07727">
        <ele>396.9</ele>
        <time>2019-06-11T14:50:55Z</time>
      </trkpt>
      <trkpt lat="45.82911" lon="3.07728">
        <ele>396.8</ele>
        <time>2019-06-11T14:50:56Z</time>
      </trkpt>
      <trkpt lat="45.82916" lon="3.07732">
        <ele>396.7</ele>
        <time>2019-06-11T14:50:58Z</time>
      </trkpt>
      <trkpt lat="45.82921" lon="3.07744">
        <ele>396.2</ele>
        <time>2019-06-11T14:51:00Z</time>
      </trkpt>
      <trkpt lat="45.82928" lon="3.07791">
        <ele>394.7</ele>
        <time>2019-06-11T14:51:07Z</time>
      </trkpt>
      <trkpt lat="45.82928" lon="3.07823">
        <ele>393.8</ele>
        <time>2019-06-11T14:51:12Z</time>
      </trkpt>
      <trkpt lat="45.82934" lon="3.07846">
        <ele>392.8</ele>
        <time>2019-06-11T14:51:16Z</time>
      </trkpt>
      <trkpt lat="45.82945" lon="3.07871">
        <ele>392.6</ele>
        <time>2019-06-11T14:51:21Z</time>
      </trkpt>
      <trkpt lat="45.8296" lon="3.07916">
        <ele>390.2</ele>
        <time>2019-06-11T14:51:29Z</time>
      </trkpt>
      <trkpt lat="45.82982" lon="3.07994">
        <ele>387.1</ele>
        <time>2019-06-11T14:51:42Z</time>
      </trkpt>
      <trkpt lat="45.83006" lon="3.08121">
        <ele>381.6</ele>
        <time>2019-06-11T14:52:02Z</time>
      </trkpt>
      <trkpt lat="45.83022" lon="3.08212">
        <ele>379.1</ele>
        <time>2019-06-11T14:52:17Z</time>
      </trkpt>
      <trkpt lat="45.83035" lon="3.08312">
        <ele>376.2</ele>
        <time>2019-06-11T14:52:32Z</time>
      </trkpt>
      <trkpt lat="45.83044" lon="3.08342">
        <ele>375.8</ele>
        <time>2019-06-11T14:52:37Z</time>
      </trkpt>
      <trkpt lat="45.83053" lon="3.08367">
        <ele>375.1</ele>
        <time>2019-06-11T14:52:42Z</time>
      </trkpt>
      <trkpt lat="45.8309" lon="3.08483">
        <ele>373.4</ele>
        <time>2019-06-11T14:53:02Z</time>
      </trkpt>
      <trkpt lat="45.831" lon="3.08531">
        <ele>372.5</ele>
        <time>2019-06-11T14:53:09Z</time>
      </trkpt>
      <trkpt lat="45.83109" lon="3.08577">
        <ele>371.2</ele>
        <time>2019-06-11T14:53:17Z</time>
      </trkpt>
      <trkpt lat="45.83106" lon="3.08621">
        <ele>369.8</ele>
        <time>2019-06-11T14:53:24Z</time>
      </trkpt>
      <trkpt lat="45.83101" lon="3.08627">
        <ele>369.6</ele>
        <time>2019-06-11T14:53:25Z</time>
      </trkpt>
      <trkpt lat="45.83098" lon="3.08635">
        <ele>369.5</ele>
        <time>2019-06-11T14:53:27Z</time>
      </trkpt>
      <trkpt lat="45.83099" lon="3.08658">
        <ele>368.2</ele>
        <time>2019-06-11T14:53:30Z</time>
      </trkpt>
      <trkpt lat="45.83103" lon="3.08667">
        <ele>367.7</ele>
        <time>2019-06-11T14:53:32Z</time>
      </trkpt>
      <trkpt lat="45.8311" lon="3.08673">
        <ele>367.7</ele>
        <time>2019-06-11T14:53:34Z</time>
      </trkpt>
      <trkpt lat="45.83117" lon="3.08708">
        <ele>366.9</ele>
        <time>2019-06-11T14:53:39Z</time>
      </trkpt>
      <trkpt lat="45.83159" lon="3.09379">
        <ele>355</ele>
        <time>2019-06-11T14:55:24Z</time>
      </trkpt>
      <trkpt lat="45.83182" lon="3.09379">
        <ele>355</ele>
        <time>2019-06-11T14:55:30Z</time>
      </trkpt>
      <trkpt lat="45.83189" lon="3.09399">
        <ele>354.7</ele>
        <time>2019-06-11T14:55:33Z</time>
      </trkpt>
      <trkpt lat="45.83187" lon="3.09423">
        <ele>354</ele>
        <time>2019-06-11T14:55:38Z</time>
      </trkpt>
      <trkpt lat="45.83211" lon="3.09551">
        <ele>352.9</ele>
        <time>2019-06-11T14:56:01Z</time>
      </trkpt>
      <trkpt lat="45.83226" lon="3.09655">
        <ele>353</ele>
        <time>2019-06-11T14:56:19Z</time>
      </trkpt>
      <trkpt lat="45.8322" lon="3.09657">
        <ele>353</ele>
        <time>2019-06-11T14:56:21Z</time>
      </trkpt>
      <trkpt lat="45.83227" lon="3.09759">
        <ele>352</ele>
        <time>2019-06-11T14:56:39Z</time>
      </trkpt>
      <trkpt lat="45.83232" lon="3.09787">
        <ele>352</ele>
        <time>2019-06-11T14:56:44Z</time>
      </trkpt>
      <trkpt lat="45.83245" lon="3.09799">
        <ele>352</ele>
        <time>2019-06-11T14:56:48Z</time>
      </trkpt>
      <trkpt lat="45.83259" lon="3.09801">
        <ele>352</ele>
        <time>2019-06-11T14:56:51Z</time>
      </trkpt>
      <trkpt lat="45.83264" lon="3.09808">
        <ele>352</ele>
        <time>2019-06-11T14:56:53Z</time>
      </trkpt>
      <trkpt lat="45.83268" lon="3.09824">
        <ele>352</ele>
        <time>2019-06-11T14:56:56Z</time>
      </trkpt>
      <trkpt lat="45.83263" lon="3.09857">
        <ele>351.6</ele>
        <time>2019-06-11T14:57:02Z</time>
      </trkpt>
      <trkpt lat="45.83269" lon="3.09883">
        <ele>351.1</ele>
        <time>2019-06-11T14:57:06Z</time>
      </trkpt>
      <trkpt lat="45.83275" lon="3.09897">
        <ele>351</ele>
        <time>2019-06-11T14:57:09Z</time>
      </trkpt>
      <trkpt lat="45.83323" lon="3.09867">
        <ele>352</ele>
        <time>2019-06-11T14:57:23Z</time>
      </trkpt>
      <trkpt lat="45.83319" lon="3.1005">
        <ele>351</ele>
        <time>2019-06-11T14:57:55Z</time>
      </trkpt>
      <trkpt lat="45.83313" lon="3.10106">
        <ele>350.4</ele>
        <time>2019-06-11T14:58:04Z</time>
      </trkpt>
      <trkpt lat="45.8329" lon="3.10172">
        <ele>350</ele>
        <time>2019-06-11T14:58:17Z</time>
      </trkpt>
      <trkpt lat="45.83283" lon="3.10208">
        <ele>350</ele>
        <time>2019-06-11T14:58:24Z</time>
      </trkpt>
      <trkpt lat="45.83272" lon="3.10245">
        <ele>349.8</ele>
        <time>2019-06-11T14:58:31Z</time>
      </trkpt>
      <trkpt lat="45.83251" lon="3.10365">
        <ele>348.2</ele>
        <time>2019-06-11T14:58:52Z</time>
      </trkpt>
      <trkpt lat="45.8323" lon="3.10493">
        <ele>348.3</ele>
        <time>2019-06-11T14:59:15Z</time>
      </trkpt>
      <trkpt lat="45.83225" lon="3.10536">
        <ele>348</ele>
        <time>2019-06-11T14:59:23Z</time>
      </trkpt>
      <trkpt lat="45.83234" lon="3.10557">
        <ele>348</ele>
        <time>2019-06-11T14:59:27Z</time>
      </trkpt>
      <trkpt lat="45.83244" lon="3.10576">
        <ele>348</ele>
        <time>2019-06-11T14:59:31Z</time>
      </trkpt>
      <trkpt lat="45.83263" lon="3.10585">
        <ele>348</ele>
        <time>2019-06-11T14:59:36Z</time>
      </trkpt>
      <trkpt lat="45.83299" lon="3.10596">
        <ele>348</ele>
        <time>2019-06-11T14:59:45Z</time>
      </trkpt>
      <trkpt lat="45.83317" lon="3.10617">
        <ele>348</ele>
        <time>2019-06-11T14:59:51Z</time>
      </trkpt>
      <trkpt lat="45.8336" lon="3.10675">
        <ele>348.3</ele>
        <time>2019-06-11T15:00:06Z</time>
      </trkpt>
      <trkpt lat="45.83497" lon="3.10889">
        <ele>349.9</ele>
        <time>2019-06-11T15:00:57Z</time>
      </trkpt>
      <trkpt lat="45.83541" lon="3.10891">
        <ele>350</ele>
        <time>2019-06-11T15:01:08Z</time>
      </trkpt>
      <trkpt lat="45.83541" lon="3.11001">
        <ele>350</ele>
        <time>2019-06-11T15:01:25Z</time>
      </trkpt>
      <trkpt lat="45.83537" lon="3.11003">
        <ele>349.9</ele>
        <time>2019-06-11T15:01:26Z</time>
      </trkpt>
      <trkpt lat="45.83534" lon="3.1101">
        <ele>349.7</ele>
        <time>2019-06-11T15:01:27Z</time>
      </trkpt>
      <trkpt lat="45.83536" lon="3.11017">
        <ele>349.6</ele>
        <time>2019-06-11T15:01:28Z</time>
      </trkpt>
      <trkpt lat="45.83541" lon="3.1102">
        <ele>349.6</ele>
        <time>2019-06-11T15:01:29Z</time>
      </trkpt>
      <trkpt lat="45.83547" lon="3.11014">
        <ele>349.8</ele>
        <time>2019-06-11T15:01:31Z</time>
      </trkpt>
      <trkpt lat="45.83547" lon="3.11011">
        <ele>349.9</ele>
        <time>2019-06-11T15:01:32Z</time>
      </trkpt>
      <trkpt lat="45.83643" lon="3.11012">
        <ele>351</ele>
        <time>2019-06-11T15:01:53Z</time>
      </trkpt>
      <trkpt lat="45.83667" lon="3.11003">
        <ele>351</ele>
        <time>2019-06-11T15:01:59Z</time>
      </trkpt>
      <trkpt lat="45.83667" lon="3.10946">
        <ele>351</ele>
        <time>2019-06-11T15:02:26Z</time>
      </trkpt>
    </trkseg>
  </trk>
</gpx>